<?xml version="1.0" encoding="UTF-8" standalone="no" ?>
<gpx xmlns="http://www.topografix.com/GPX/1/1" xmlns:xsi="http://www.w3.org/2001/XMLSchema-instance" xsi:schemaLocation="http://www.topografix.com/GPX/1/1 http://www.topografix.com/GPX/1/1/gpx.xsd" version="1.1" creator="VisuGPX - https://www.visugpx.com">
  <metadata>
    <name>20-Castet Arrouy_La Romieu</name>
  </metadata>
  <trk>
    <name><![CDATA[20-Castet Arrouy_La Romieu]]></name>
    <trkseg>
      <trkpt lat="43.97948" lon="0.715">
        <ele>107</ele>
        <time>2021-03-13T19:16:55+01:00</time>
      </trkpt>
      <trkpt lat="43.97934" lon="0.71469">
        <ele>107</ele>
        <time>2021-03-13T19:17:00+01:00</time>
      </trkpt>
      <trkpt lat="43.97922" lon="0.71448">
        <ele>107</ele>
        <time>2021-03-13T19:17:05+01:00</time>
      </trkpt>
      <trkpt lat="43.97902" lon="0.71423">
        <ele>107</ele>
        <time>2021-03-13T19:17:10+01:00</time>
      </trkpt>
      <trkpt lat="43.97876" lon="0.71392">
        <ele>107</ele>
        <time>2021-03-13T19:17:15+01:00</time>
      </trkpt>
      <trkpt lat="43.97856" lon="0.71367">
        <ele>107</ele>
        <time>2021-03-13T19:17:20+01:00</time>
      </trkpt>
      <trkpt lat="43.97837" lon="0.71339">
        <ele>106</ele>
        <time>2021-03-13T19:17:25+01:00</time>
      </trkpt>
      <trkpt lat="43.97778" lon="0.71321">
        <ele>103</ele>
        <time>2021-03-13T19:17:30+01:00</time>
      </trkpt>
      <trkpt lat="43.97778" lon="0.71321">
        <ele>103</ele>
        <time>2021-03-13T19:17:35+01:00</time>
      </trkpt>
      <trkpt lat="43.97748" lon="0.71307">
        <ele>105</ele>
        <time>2021-03-13T19:17:40+01:00</time>
      </trkpt>
      <trkpt lat="43.97718" lon="0.71287">
        <ele>107</ele>
        <time>2021-03-13T19:17:45+01:00</time>
      </trkpt>
      <trkpt lat="43.97675" lon="0.71247">
        <ele>109</ele>
        <time>2021-03-13T19:17:50+01:00</time>
      </trkpt>
      <trkpt lat="43.97613" lon="0.71192">
        <ele>110</ele>
        <time>2021-03-13T19:17:55+01:00</time>
      </trkpt>
      <trkpt lat="43.97477" lon="0.71069">
        <ele>113</ele>
        <time>2021-03-13T19:18:00+01:00</time>
      </trkpt>
      <trkpt lat="43.97439" lon="0.71035">
        <ele>114</ele>
        <time>2021-03-13T19:18:05+01:00</time>
      </trkpt>
      <trkpt lat="43.97439" lon="0.71035">
        <ele>114</ele>
        <time>2021-03-13T19:18:10+01:00</time>
      </trkpt>
      <trkpt lat="43.9732" lon="0.70926">
        <ele>118</ele>
        <time>2021-03-13T19:18:15+01:00</time>
      </trkpt>
      <trkpt lat="43.97251" lon="0.70858">
        <ele>118</ele>
        <time>2021-03-13T19:18:20+01:00</time>
      </trkpt>
      <trkpt lat="43.97206" lon="0.70813">
        <ele>118</ele>
        <time>2021-03-13T19:18:25+01:00</time>
      </trkpt>
      <trkpt lat="43.97125" lon="0.70731">
        <ele>121</ele>
        <time>2021-03-13T19:18:30+01:00</time>
      </trkpt>
      <trkpt lat="43.97044" lon="0.70649">
        <ele>126</ele>
        <time>2021-03-13T19:18:35+01:00</time>
      </trkpt>
      <trkpt lat="43.96919" lon="0.70523">
        <ele>124</ele>
        <time>2021-03-13T19:18:40+01:00</time>
      </trkpt>
      <trkpt lat="43.96856" lon="0.7046">
        <ele>119</ele>
        <time>2021-03-13T19:18:45+01:00</time>
      </trkpt>
      <trkpt lat="43.96856" lon="0.7046">
        <ele>119</ele>
        <time>2021-03-13T19:18:50+01:00</time>
      </trkpt>
      <trkpt lat="43.9671" lon="0.70313">
        <ele>116</ele>
        <time>2021-03-13T19:18:55+01:00</time>
      </trkpt>
      <trkpt lat="43.96673" lon="0.70275">
        <ele>116</ele>
        <time>2021-03-13T19:19:00+01:00</time>
      </trkpt>
      <trkpt lat="43.96623" lon="0.70211">
        <ele>117</ele>
        <time>2021-03-13T19:19:05+01:00</time>
      </trkpt>
      <trkpt lat="43.96557" lon="0.70124">
        <ele>119</ele>
        <time>2021-03-13T19:19:10+01:00</time>
      </trkpt>
      <trkpt lat="43.96501" lon="0.7005">
        <ele>122</ele>
        <time>2021-03-13T19:19:15+01:00</time>
      </trkpt>
      <trkpt lat="43.96486" lon="0.70032">
        <ele>123</ele>
        <time>2021-03-13T19:19:20+01:00</time>
      </trkpt>
      <trkpt lat="43.96472" lon="0.7002">
        <ele>124</ele>
        <time>2021-03-13T19:19:25+01:00</time>
      </trkpt>
      <trkpt lat="43.96462" lon="0.70016">
        <ele>123</ele>
        <time>2021-03-13T19:19:30+01:00</time>
      </trkpt>
      <trkpt lat="43.96438" lon="0.70008">
        <ele>123</ele>
        <time>2021-03-13T19:19:35+01:00</time>
      </trkpt>
      <trkpt lat="43.96315" lon="0.69969">
        <ele>116</ele>
        <time>2021-03-13T19:19:40+01:00</time>
      </trkpt>
      <trkpt lat="43.96315" lon="0.69969">
        <ele>116</ele>
        <time>2021-03-13T19:19:45+01:00</time>
      </trkpt>
      <trkpt lat="43.96277" lon="0.69957">
        <ele>114</ele>
        <time>2021-03-13T19:19:50+01:00</time>
      </trkpt>
      <trkpt lat="43.9625" lon="0.69946">
        <ele>113</ele>
        <time>2021-03-13T19:19:55+01:00</time>
      </trkpt>
      <trkpt lat="43.96237" lon="0.69934">
        <ele>112</ele>
        <time>2021-03-13T19:20:00+01:00</time>
      </trkpt>
      <trkpt lat="43.96225" lon="0.69914">
        <ele>111</ele>
        <time>2021-03-13T19:20:05+01:00</time>
      </trkpt>
      <trkpt lat="43.96199" lon="0.69858">
        <ele>111</ele>
        <time>2021-03-13T19:20:10+01:00</time>
      </trkpt>
      <trkpt lat="43.96168" lon="0.69793">
        <ele>111</ele>
        <time>2021-03-13T19:20:15+01:00</time>
      </trkpt>
      <trkpt lat="43.96169" lon="0.69793">
        <ele>111</ele>
        <time>2021-03-13T19:20:20+01:00</time>
      </trkpt>
      <trkpt lat="43.96169" lon="0.69654">
        <ele>114</ele>
        <time>2021-03-13T19:20:25+01:00</time>
      </trkpt>
      <trkpt lat="43.96168" lon="0.69616">
        <ele>114</ele>
        <time>2021-03-13T19:20:30+01:00</time>
      </trkpt>
      <trkpt lat="43.96165" lon="0.69583">
        <ele>115</ele>
        <time>2021-03-13T19:20:35+01:00</time>
      </trkpt>
      <trkpt lat="43.96166" lon="0.69553">
        <ele>116</ele>
        <time>2021-03-13T19:20:40+01:00</time>
      </trkpt>
      <trkpt lat="43.96174" lon="0.69501">
        <ele>118</ele>
        <time>2021-03-13T19:20:45+01:00</time>
      </trkpt>
      <trkpt lat="43.96183" lon="0.69426">
        <ele>121</ele>
        <time>2021-03-13T19:20:50+01:00</time>
      </trkpt>
      <trkpt lat="43.96198" lon="0.69338">
        <ele>125</ele>
        <time>2021-03-13T19:20:55+01:00</time>
      </trkpt>
      <trkpt lat="43.96207" lon="0.69297">
        <ele>127</ele>
        <time>2021-03-13T19:21:00+01:00</time>
      </trkpt>
      <trkpt lat="43.96214" lon="0.69246">
        <ele>128</ele>
        <time>2021-03-13T19:21:05+01:00</time>
      </trkpt>
      <trkpt lat="43.96218" lon="0.69191">
        <ele>128</ele>
        <time>2021-03-13T19:21:10+01:00</time>
      </trkpt>
      <trkpt lat="43.96222" lon="0.69135">
        <ele>127</ele>
        <time>2021-03-13T19:21:15+01:00</time>
      </trkpt>
      <trkpt lat="43.96213" lon="0.69078">
        <ele>126</ele>
        <time>2021-03-13T19:21:20+01:00</time>
      </trkpt>
      <trkpt lat="43.96203" lon="0.69037">
        <ele>125</ele>
        <time>2021-03-13T19:21:25+01:00</time>
      </trkpt>
      <trkpt lat="43.96174" lon="0.6894">
        <ele>122</ele>
        <time>2021-03-13T19:21:30+01:00</time>
      </trkpt>
      <trkpt lat="43.96159" lon="0.689">
        <ele>121</ele>
        <time>2021-03-13T19:21:35+01:00</time>
      </trkpt>
      <trkpt lat="43.96159" lon="0.689">
        <ele>121</ele>
        <time>2021-03-13T19:21:40+01:00</time>
      </trkpt>
      <trkpt lat="43.96134" lon="0.68836">
        <ele>120</ele>
        <time>2021-03-13T19:21:45+01:00</time>
      </trkpt>
      <trkpt lat="43.96116" lon="0.68805">
        <ele>119</ele>
        <time>2021-03-13T19:21:50+01:00</time>
      </trkpt>
      <trkpt lat="43.961" lon="0.68789">
        <ele>119</ele>
        <time>2021-03-13T19:21:55+01:00</time>
      </trkpt>
      <trkpt lat="43.96075" lon="0.68767">
        <ele>119</ele>
        <time>2021-03-13T19:22:00+01:00</time>
      </trkpt>
      <trkpt lat="43.96021" lon="0.6877">
        <ele>117</ele>
        <time>2021-03-13T19:22:05+01:00</time>
      </trkpt>
      <trkpt lat="43.9601" lon="0.68769">
        <ele>117</ele>
        <time>2021-03-13T19:22:10+01:00</time>
      </trkpt>
      <trkpt lat="43.96004" lon="0.68755">
        <ele>117</ele>
        <time>2021-03-13T19:22:15+01:00</time>
      </trkpt>
      <trkpt lat="43.96003" lon="0.68735">
        <ele>118</ele>
        <time>2021-03-13T19:22:20+01:00</time>
      </trkpt>
      <trkpt lat="43.95976" lon="0.6868">
        <ele>119</ele>
        <time>2021-03-13T19:22:25+01:00</time>
      </trkpt>
      <trkpt lat="43.95932" lon="0.68602">
        <ele>120</ele>
        <time>2021-03-13T19:22:30+01:00</time>
      </trkpt>
      <trkpt lat="43.95907" lon="0.68571">
        <ele>120</ele>
        <time>2021-03-13T19:22:35+01:00</time>
      </trkpt>
      <trkpt lat="43.95897" lon="0.68556">
        <ele>120</ele>
        <time>2021-03-13T19:22:40+01:00</time>
      </trkpt>
      <trkpt lat="43.95873" lon="0.68502">
        <ele>120</ele>
        <time>2021-03-13T19:22:45+01:00</time>
      </trkpt>
      <trkpt lat="43.95862" lon="0.68463">
        <ele>121</ele>
        <time>2021-03-13T19:22:50+01:00</time>
      </trkpt>
      <trkpt lat="43.95844" lon="0.68374">
        <ele>123</ele>
        <time>2021-03-13T19:22:55+01:00</time>
      </trkpt>
      <trkpt lat="43.95844" lon="0.68374">
        <ele>123</ele>
        <time>2021-03-13T19:23:00+01:00</time>
      </trkpt>
      <trkpt lat="43.95828" lon="0.68307">
        <ele>124</ele>
        <time>2021-03-13T19:23:05+01:00</time>
      </trkpt>
      <trkpt lat="43.95812" lon="0.68254">
        <ele>124</ele>
        <time>2021-03-13T19:23:10+01:00</time>
      </trkpt>
      <trkpt lat="43.95812" lon="0.68242">
        <ele>125</ele>
        <time>2021-03-13T19:23:15+01:00</time>
      </trkpt>
      <trkpt lat="43.95826" lon="0.68205">
        <ele>127</ele>
        <time>2021-03-13T19:23:20+01:00</time>
      </trkpt>
      <trkpt lat="43.95826" lon="0.68193">
        <ele>128</ele>
        <time>2021-03-13T19:23:25+01:00</time>
      </trkpt>
      <trkpt lat="43.95756" lon="0.6804">
        <ele>128</ele>
        <time>2021-03-13T19:23:30+01:00</time>
      </trkpt>
      <trkpt lat="43.95743" lon="0.68025">
        <ele>128</ele>
        <time>2021-03-13T19:23:35+01:00</time>
      </trkpt>
      <trkpt lat="43.95712" lon="0.68011">
        <ele>127</ele>
        <time>2021-03-13T19:23:40+01:00</time>
      </trkpt>
      <trkpt lat="43.95697" lon="0.68005">
        <ele>127</ele>
        <time>2021-03-13T19:23:45+01:00</time>
      </trkpt>
      <trkpt lat="43.95694" lon="0.68005">
        <ele>127</ele>
        <time>2021-03-13T19:23:50+01:00</time>
      </trkpt>
      <trkpt lat="43.95694" lon="0.68004">
        <ele>127</ele>
        <time>2021-03-13T19:23:55+01:00</time>
      </trkpt>
      <trkpt lat="43.9569" lon="0.67887">
        <ele>128</ele>
        <time>2021-03-13T19:24:00+01:00</time>
      </trkpt>
      <trkpt lat="43.95677" lon="0.67862">
        <ele>129</ele>
        <time>2021-03-13T19:24:05+01:00</time>
      </trkpt>
      <trkpt lat="43.95637" lon="0.67811">
        <ele>130</ele>
        <time>2021-03-13T19:24:10+01:00</time>
      </trkpt>
      <trkpt lat="43.95603" lon="0.67761">
        <ele>130</ele>
        <time>2021-03-13T19:24:15+01:00</time>
      </trkpt>
      <trkpt lat="43.95573" lon="0.67746">
        <ele>130</ele>
        <time>2021-03-13T19:24:20+01:00</time>
      </trkpt>
      <trkpt lat="43.95573" lon="0.67746">
        <ele>130</ele>
        <time>2021-03-13T19:24:25+01:00</time>
      </trkpt>
      <trkpt lat="43.95522" lon="0.67716">
        <ele>131</ele>
        <time>2021-03-13T19:24:30+01:00</time>
      </trkpt>
      <trkpt lat="43.95503" lon="0.6772">
        <ele>132</ele>
        <time>2021-03-13T19:24:35+01:00</time>
      </trkpt>
      <trkpt lat="43.95492" lon="0.67718">
        <ele>132</ele>
        <time>2021-03-13T19:24:40+01:00</time>
      </trkpt>
      <trkpt lat="43.95465" lon="0.67712">
        <ele>133</ele>
        <time>2021-03-13T19:24:45+01:00</time>
      </trkpt>
      <trkpt lat="43.9544" lon="0.67685">
        <ele>134</ele>
        <time>2021-03-13T19:24:50+01:00</time>
      </trkpt>
      <trkpt lat="43.95405" lon="0.67631">
        <ele>136</ele>
        <time>2021-03-13T19:24:55+01:00</time>
      </trkpt>
      <trkpt lat="43.95373" lon="0.67549">
        <ele>138</ele>
        <time>2021-03-13T19:25:00+01:00</time>
      </trkpt>
      <trkpt lat="43.95342" lon="0.67447">
        <ele>140</ele>
        <time>2021-03-13T19:25:05+01:00</time>
      </trkpt>
      <trkpt lat="43.95317" lon="0.67352">
        <ele>140</ele>
        <time>2021-03-13T19:25:10+01:00</time>
      </trkpt>
      <trkpt lat="43.9531" lon="0.67304">
        <ele>140</ele>
        <time>2021-03-13T19:25:15+01:00</time>
      </trkpt>
      <trkpt lat="43.95308" lon="0.67301">
        <ele>140</ele>
        <time>2021-03-13T19:25:20+01:00</time>
      </trkpt>
      <trkpt lat="43.95306" lon="0.67296">
        <ele>140</ele>
        <time>2021-03-13T19:25:25+01:00</time>
      </trkpt>
      <trkpt lat="43.95303" lon="0.67265">
        <ele>142</ele>
        <time>2021-03-13T19:25:30+01:00</time>
      </trkpt>
      <trkpt lat="43.95282" lon="0.67188">
        <ele>145</ele>
        <time>2021-03-13T19:25:35+01:00</time>
      </trkpt>
      <trkpt lat="43.95278" lon="0.67181">
        <ele>145</ele>
        <time>2021-03-13T19:25:40+01:00</time>
      </trkpt>
      <trkpt lat="43.95269" lon="0.6717">
        <ele>145</ele>
        <time>2021-03-13T19:25:45+01:00</time>
      </trkpt>
      <trkpt lat="43.95265" lon="0.67167">
        <ele>146</ele>
        <time>2021-03-13T19:25:50+01:00</time>
      </trkpt>
      <trkpt lat="43.9524" lon="0.67124">
        <ele>148</ele>
        <time>2021-03-13T19:25:55+01:00</time>
      </trkpt>
      <trkpt lat="43.95224" lon="0.67094">
        <ele>150</ele>
        <time>2021-03-13T19:26:00+01:00</time>
      </trkpt>
      <trkpt lat="43.95224" lon="0.67094">
        <ele>150</ele>
        <time>2021-03-13T19:26:05+01:00</time>
      </trkpt>
      <trkpt lat="43.95214" lon="0.67078">
        <ele>151</ele>
        <time>2021-03-13T19:26:10+01:00</time>
      </trkpt>
      <trkpt lat="43.95293" lon="0.6693">
        <ele>160</ele>
        <time>2021-03-13T19:26:15+01:00</time>
      </trkpt>
      <trkpt lat="43.95321" lon="0.66947">
        <ele>157</ele>
        <time>2021-03-13T19:26:20+01:00</time>
      </trkpt>
      <trkpt lat="43.95364" lon="0.66887">
        <ele>158</ele>
        <time>2021-03-13T19:26:25+01:00</time>
      </trkpt>
      <trkpt lat="43.95404" lon="0.66784">
        <ele>158</ele>
        <time>2021-03-13T19:26:30+01:00</time>
      </trkpt>
      <trkpt lat="43.95414" lon="0.66659">
        <ele>161</ele>
        <time>2021-03-13T19:26:35+01:00</time>
      </trkpt>
      <trkpt lat="43.95451" lon="0.66531">
        <ele>159</ele>
        <time>2021-03-13T19:26:40+01:00</time>
      </trkpt>
      <trkpt lat="43.95463" lon="0.66462">
        <ele>161</ele>
        <time>2021-03-13T19:26:45+01:00</time>
      </trkpt>
      <trkpt lat="43.95466" lon="0.66389">
        <ele>164</ele>
        <time>2021-03-13T19:26:50+01:00</time>
      </trkpt>
      <trkpt lat="43.95488" lon="0.66265">
        <ele>167</ele>
        <time>2021-03-13T19:26:55+01:00</time>
      </trkpt>
      <trkpt lat="43.95497" lon="0.6611">
        <ele>171</ele>
        <time>2021-03-13T19:27:00+01:00</time>
      </trkpt>
      <trkpt lat="43.95497" lon="0.66113">
        <ele>171</ele>
        <time>2021-03-13T19:27:05+01:00</time>
      </trkpt>
      <trkpt lat="43.95486" lon="0.66112">
        <ele>171</ele>
        <time>2021-03-13T19:27:10+01:00</time>
      </trkpt>
      <trkpt lat="43.95482" lon="0.66091">
        <ele>172</ele>
        <time>2021-03-13T19:27:15+01:00</time>
      </trkpt>
      <trkpt lat="43.95468" lon="0.66026">
        <ele>173</ele>
        <time>2021-03-13T19:27:20+01:00</time>
      </trkpt>
      <trkpt lat="43.95469" lon="0.66016">
        <ele>174</ele>
        <time>2021-03-13T19:27:25+01:00</time>
      </trkpt>
      <trkpt lat="43.95466" lon="0.66011">
        <ele>174</ele>
        <time>2021-03-13T19:27:30+01:00</time>
      </trkpt>
      <trkpt lat="43.95457" lon="0.65968">
        <ele>175</ele>
        <time>2021-03-13T19:27:35+01:00</time>
      </trkpt>
      <trkpt lat="43.95451" lon="0.65959">
        <ele>175</ele>
        <time>2021-03-13T19:27:40+01:00</time>
      </trkpt>
      <trkpt lat="43.95193" lon="0.65753">
        <ele>195</ele>
        <time>2021-03-13T19:27:45+01:00</time>
      </trkpt>
      <trkpt lat="43.95193" lon="0.65753">
        <ele>195</ele>
        <time>2021-03-13T19:27:50+01:00</time>
      </trkpt>
      <trkpt lat="43.94916" lon="0.65534">
        <ele>210</ele>
        <time>2021-03-13T19:27:55+01:00</time>
      </trkpt>
      <trkpt lat="43.94907" lon="0.65529">
        <ele>210</ele>
        <time>2021-03-13T19:28:00+01:00</time>
      </trkpt>
      <trkpt lat="43.94901" lon="0.65521">
        <ele>210</ele>
        <time>2021-03-13T19:28:05+01:00</time>
      </trkpt>
      <trkpt lat="43.94896" lon="0.65512">
        <ele>210</ele>
        <time>2021-03-13T19:28:10+01:00</time>
      </trkpt>
      <trkpt lat="43.94875" lon="0.65529">
        <ele>210</ele>
        <time>2021-03-13T19:28:15+01:00</time>
      </trkpt>
      <trkpt lat="43.94826" lon="0.65574">
        <ele>210</ele>
        <time>2021-03-13T19:28:20+01:00</time>
      </trkpt>
      <trkpt lat="43.94822" lon="0.65565">
        <ele>210</ele>
        <time>2021-03-13T19:28:25+01:00</time>
      </trkpt>
      <trkpt lat="43.94818" lon="0.65561">
        <ele>210</ele>
        <time>2021-03-13T19:28:30+01:00</time>
      </trkpt>
      <trkpt lat="43.94751" lon="0.65525">
        <ele>210</ele>
        <time>2021-03-13T19:28:35+01:00</time>
      </trkpt>
      <trkpt lat="43.94751" lon="0.65526">
        <ele>210</ele>
        <time>2021-03-13T19:28:40+01:00</time>
      </trkpt>
      <trkpt lat="43.9464" lon="0.65467">
        <ele>211</ele>
        <time>2021-03-13T19:28:45+01:00</time>
      </trkpt>
      <trkpt lat="43.94568" lon="0.65436">
        <ele>211</ele>
        <time>2021-03-13T19:28:50+01:00</time>
      </trkpt>
      <trkpt lat="43.94538" lon="0.65424">
        <ele>211</ele>
        <time>2021-03-13T19:28:55+01:00</time>
      </trkpt>
      <trkpt lat="43.94517" lon="0.65408">
        <ele>211</ele>
        <time>2021-03-13T19:29:00+01:00</time>
      </trkpt>
      <trkpt lat="43.94427" lon="0.65334">
        <ele>208</ele>
        <time>2021-03-13T19:29:05+01:00</time>
      </trkpt>
      <trkpt lat="43.94363" lon="0.65281">
        <ele>203</ele>
        <time>2021-03-13T19:29:10+01:00</time>
      </trkpt>
      <trkpt lat="43.94293" lon="0.65192">
        <ele>194</ele>
        <time>2021-03-13T19:29:15+01:00</time>
      </trkpt>
      <trkpt lat="43.94293" lon="0.65192">
        <ele>194</ele>
        <time>2021-03-13T19:29:20+01:00</time>
      </trkpt>
      <trkpt lat="43.9427" lon="0.65162">
        <ele>191</ele>
        <time>2021-03-13T19:29:25+01:00</time>
      </trkpt>
      <trkpt lat="43.9425" lon="0.65129">
        <ele>188</ele>
        <time>2021-03-13T19:29:30+01:00</time>
      </trkpt>
      <trkpt lat="43.94225" lon="0.65096">
        <ele>183</ele>
        <time>2021-03-13T19:29:35+01:00</time>
      </trkpt>
      <trkpt lat="43.94212" lon="0.65086">
        <ele>182</ele>
        <time>2021-03-13T19:29:40+01:00</time>
      </trkpt>
      <trkpt lat="43.9419" lon="0.65079">
        <ele>180</ele>
        <time>2021-03-13T19:29:45+01:00</time>
      </trkpt>
      <trkpt lat="43.94125" lon="0.65061">
        <ele>174</ele>
        <time>2021-03-13T19:29:50+01:00</time>
      </trkpt>
      <trkpt lat="43.94079" lon="0.65035">
        <ele>170</ele>
        <time>2021-03-13T19:29:55+01:00</time>
      </trkpt>
      <trkpt lat="43.94073" lon="0.65029">
        <ele>169</ele>
        <time>2021-03-13T19:30:00+01:00</time>
      </trkpt>
      <trkpt lat="43.94066" lon="0.65016">
        <ele>168</ele>
        <time>2021-03-13T19:30:05+01:00</time>
      </trkpt>
      <trkpt lat="43.94073" lon="0.65014">
        <ele>169</ele>
        <time>2021-03-13T19:30:10+01:00</time>
      </trkpt>
      <trkpt lat="43.94087" lon="0.65002">
        <ele>170</ele>
        <time>2021-03-13T19:30:15+01:00</time>
      </trkpt>
      <trkpt lat="43.94106" lon="0.64978">
        <ele>172</ele>
        <time>2021-03-13T19:30:20+01:00</time>
      </trkpt>
      <trkpt lat="43.94121" lon="0.64964">
        <ele>173</ele>
        <time>2021-03-13T19:30:25+01:00</time>
      </trkpt>
      <trkpt lat="43.94144" lon="0.6495">
        <ele>175</ele>
        <time>2021-03-13T19:30:30+01:00</time>
      </trkpt>
      <trkpt lat="43.94164" lon="0.64936">
        <ele>176</ele>
        <time>2021-03-13T19:30:35+01:00</time>
      </trkpt>
      <trkpt lat="43.94204" lon="0.64904">
        <ele>177</ele>
        <time>2021-03-13T19:30:40+01:00</time>
      </trkpt>
      <trkpt lat="43.94231" lon="0.64889">
        <ele>179</ele>
        <time>2021-03-13T19:30:45+01:00</time>
      </trkpt>
      <trkpt lat="43.94231" lon="0.6489">
        <ele>179</ele>
        <time>2021-03-13T19:30:50+01:00</time>
      </trkpt>
      <trkpt lat="43.94244" lon="0.64884">
        <ele>180</ele>
        <time>2021-03-13T19:30:55+01:00</time>
      </trkpt>
      <trkpt lat="43.94291" lon="0.64869">
        <ele>183</ele>
        <time>2021-03-13T19:31:00+01:00</time>
      </trkpt>
      <trkpt lat="43.94352" lon="0.64855">
        <ele>189</ele>
        <time>2021-03-13T19:31:05+01:00</time>
      </trkpt>
      <trkpt lat="43.94378" lon="0.64846">
        <ele>192</ele>
        <time>2021-03-13T19:31:10+01:00</time>
      </trkpt>
      <trkpt lat="43.94393" lon="0.64842">
        <ele>194</ele>
        <time>2021-03-13T19:31:15+01:00</time>
      </trkpt>
      <trkpt lat="43.94401" lon="0.64837">
        <ele>194</ele>
        <time>2021-03-13T19:31:20+01:00</time>
      </trkpt>
      <trkpt lat="43.94407" lon="0.6483">
        <ele>195</ele>
        <time>2021-03-13T19:31:25+01:00</time>
      </trkpt>
      <trkpt lat="43.94412" lon="0.64818">
        <ele>195</ele>
        <time>2021-03-13T19:31:30+01:00</time>
      </trkpt>
      <trkpt lat="43.94446" lon="0.64695">
        <ele>197</ele>
        <time>2021-03-13T19:31:35+01:00</time>
      </trkpt>
      <trkpt lat="43.9447" lon="0.64576">
        <ele>198</ele>
        <time>2021-03-13T19:31:40+01:00</time>
      </trkpt>
      <trkpt lat="43.9445" lon="0.64541">
        <ele>195</ele>
        <time>2021-03-13T19:31:45+01:00</time>
      </trkpt>
      <trkpt lat="43.94423" lon="0.64485">
        <ele>192</ele>
        <time>2021-03-13T19:31:50+01:00</time>
      </trkpt>
      <trkpt lat="43.94412" lon="0.64453">
        <ele>190</ele>
        <time>2021-03-13T19:31:55+01:00</time>
      </trkpt>
      <trkpt lat="43.94412" lon="0.64452">
        <ele>190</ele>
        <time>2021-03-13T19:32:00+01:00</time>
      </trkpt>
      <trkpt lat="43.94412" lon="0.64452">
        <ele>190</ele>
        <time>2021-03-13T19:32:05+01:00</time>
      </trkpt>
      <trkpt lat="43.94405" lon="0.64414">
        <ele>187</ele>
        <time>2021-03-13T19:32:10+01:00</time>
      </trkpt>
      <trkpt lat="43.94404" lon="0.64387">
        <ele>186</ele>
        <time>2021-03-13T19:32:15+01:00</time>
      </trkpt>
      <trkpt lat="43.94404" lon="0.64375">
        <ele>185</ele>
        <time>2021-03-13T19:32:20+01:00</time>
      </trkpt>
      <trkpt lat="43.94396" lon="0.64344">
        <ele>183</ele>
        <time>2021-03-13T19:32:25+01:00</time>
      </trkpt>
      <trkpt lat="43.94386" lon="0.64309">
        <ele>181</ele>
        <time>2021-03-13T19:32:30+01:00</time>
      </trkpt>
      <trkpt lat="43.94325" lon="0.64212">
        <ele>174</ele>
        <time>2021-03-13T19:32:35+01:00</time>
      </trkpt>
      <trkpt lat="43.94285" lon="0.64149">
        <ele>168</ele>
        <time>2021-03-13T19:32:40+01:00</time>
      </trkpt>
      <trkpt lat="43.94264" lon="0.6412">
        <ele>165</ele>
        <time>2021-03-13T19:32:45+01:00</time>
      </trkpt>
      <trkpt lat="43.94254" lon="0.64104">
        <ele>164</ele>
        <time>2021-03-13T19:32:50+01:00</time>
      </trkpt>
      <trkpt lat="43.9424" lon="0.64029">
        <ele>165</ele>
        <time>2021-03-13T19:32:55+01:00</time>
      </trkpt>
      <trkpt lat="43.94231" lon="0.63988">
        <ele>164</ele>
        <time>2021-03-13T19:33:00+01:00</time>
      </trkpt>
      <trkpt lat="43.94231" lon="0.63988">
        <ele>164</ele>
        <time>2021-03-13T19:33:05+01:00</time>
      </trkpt>
      <trkpt lat="43.94224" lon="0.63946">
        <ele>162</ele>
        <time>2021-03-13T19:33:10+01:00</time>
      </trkpt>
      <trkpt lat="43.94228" lon="0.63882">
        <ele>164</ele>
        <time>2021-03-13T19:33:15+01:00</time>
      </trkpt>
      <trkpt lat="43.94226" lon="0.63852">
        <ele>165</ele>
        <time>2021-03-13T19:33:20+01:00</time>
      </trkpt>
      <trkpt lat="43.94219" lon="0.63819">
        <ele>164</ele>
        <time>2021-03-13T19:33:25+01:00</time>
      </trkpt>
      <trkpt lat="43.94198" lon="0.63761">
        <ele>158</ele>
        <time>2021-03-13T19:33:30+01:00</time>
      </trkpt>
      <trkpt lat="43.94189" lon="0.63685">
        <ele>155</ele>
        <time>2021-03-13T19:33:35+01:00</time>
      </trkpt>
      <trkpt lat="43.942" lon="0.63588">
        <ele>155</ele>
        <time>2021-03-13T19:33:40+01:00</time>
      </trkpt>
      <trkpt lat="43.94202" lon="0.63563">
        <ele>156</ele>
        <time>2021-03-13T19:33:45+01:00</time>
      </trkpt>
      <trkpt lat="43.942" lon="0.6356">
        <ele>156</ele>
        <time>2021-03-13T19:33:50+01:00</time>
      </trkpt>
      <trkpt lat="43.94194" lon="0.63547">
        <ele>156</ele>
        <time>2021-03-13T19:33:55+01:00</time>
      </trkpt>
      <trkpt lat="43.9418" lon="0.63529">
        <ele>154</ele>
        <time>2021-03-13T19:34:00+01:00</time>
      </trkpt>
      <trkpt lat="43.94166" lon="0.63521">
        <ele>151</ele>
        <time>2021-03-13T19:34:05+01:00</time>
      </trkpt>
      <trkpt lat="43.94131" lon="0.63513">
        <ele>144</ele>
        <time>2021-03-13T19:34:10+01:00</time>
      </trkpt>
      <trkpt lat="43.9411" lon="0.63505">
        <ele>141</ele>
        <time>2021-03-13T19:34:15+01:00</time>
      </trkpt>
      <trkpt lat="43.94099" lon="0.63498">
        <ele>139</ele>
        <time>2021-03-13T19:34:20+01:00</time>
      </trkpt>
      <trkpt lat="43.94037" lon="0.63427">
        <ele>131</ele>
        <time>2021-03-13T19:34:25+01:00</time>
      </trkpt>
      <trkpt lat="43.94037" lon="0.63427">
        <ele>131</ele>
        <time>2021-03-13T19:34:30+01:00</time>
      </trkpt>
      <trkpt lat="43.93986" lon="0.63363">
        <ele>125</ele>
        <time>2021-03-13T19:34:35+01:00</time>
      </trkpt>
      <trkpt lat="43.93964" lon="0.63323">
        <ele>121</ele>
        <time>2021-03-13T19:34:40+01:00</time>
      </trkpt>
      <trkpt lat="43.93937" lon="0.63273">
        <ele>121</ele>
        <time>2021-03-13T19:34:45+01:00</time>
      </trkpt>
      <trkpt lat="43.9392" lon="0.63244">
        <ele>122</ele>
        <time>2021-03-13T19:34:50+01:00</time>
      </trkpt>
      <trkpt lat="43.93909" lon="0.63231">
        <ele>123</ele>
        <time>2021-03-13T19:34:55+01:00</time>
      </trkpt>
      <trkpt lat="43.9388" lon="0.63204">
        <ele>126</ele>
        <time>2021-03-13T19:35:00+01:00</time>
      </trkpt>
      <trkpt lat="43.93844" lon="0.63165">
        <ele>127</ele>
        <time>2021-03-13T19:35:05+01:00</time>
      </trkpt>
      <trkpt lat="43.93814" lon="0.63127">
        <ele>127</ele>
        <time>2021-03-13T19:35:10+01:00</time>
      </trkpt>
      <trkpt lat="43.93794" lon="0.6311">
        <ele>126</ele>
        <time>2021-03-13T19:35:15+01:00</time>
      </trkpt>
      <trkpt lat="43.93774" lon="0.63098">
        <ele>126</ele>
        <time>2021-03-13T19:35:20+01:00</time>
      </trkpt>
      <trkpt lat="43.93711" lon="0.63064">
        <ele>126</ele>
        <time>2021-03-13T19:35:25+01:00</time>
      </trkpt>
      <trkpt lat="43.93702" lon="0.63054">
        <ele>126</ele>
        <time>2021-03-13T19:35:30+01:00</time>
      </trkpt>
      <trkpt lat="43.937" lon="0.63047">
        <ele>126</ele>
        <time>2021-03-13T19:35:35+01:00</time>
      </trkpt>
      <trkpt lat="43.937" lon="0.63022">
        <ele>126</ele>
        <time>2021-03-13T19:35:40+01:00</time>
      </trkpt>
      <trkpt lat="43.93695" lon="0.63014">
        <ele>127</ele>
        <time>2021-03-13T19:35:45+01:00</time>
      </trkpt>
      <trkpt lat="43.93694" lon="0.62998">
        <ele>128</ele>
        <time>2021-03-13T19:35:50+01:00</time>
      </trkpt>
      <trkpt lat="43.93698" lon="0.62968">
        <ele>127</ele>
        <time>2021-03-13T19:35:55+01:00</time>
      </trkpt>
      <trkpt lat="43.93698" lon="0.62948">
        <ele>128</ele>
        <time>2021-03-13T19:36:00+01:00</time>
      </trkpt>
      <trkpt lat="43.93696" lon="0.62935">
        <ele>129</ele>
        <time>2021-03-13T19:36:05+01:00</time>
      </trkpt>
      <trkpt lat="43.93688" lon="0.62905">
        <ele>133</ele>
        <time>2021-03-13T19:36:10+01:00</time>
      </trkpt>
      <trkpt lat="43.93684" lon="0.62879">
        <ele>136</ele>
        <time>2021-03-13T19:36:15+01:00</time>
      </trkpt>
      <trkpt lat="43.93684" lon="0.6283">
        <ele>140</ele>
        <time>2021-03-13T19:36:20+01:00</time>
      </trkpt>
      <trkpt lat="43.93684" lon="0.6283">
        <ele>140</ele>
        <time>2021-03-13T19:36:25+01:00</time>
      </trkpt>
      <trkpt lat="43.93684" lon="0.62817">
        <ele>141</ele>
        <time>2021-03-13T19:36:30+01:00</time>
      </trkpt>
      <trkpt lat="43.93678" lon="0.628">
        <ele>145</ele>
        <time>2021-03-13T19:36:35+01:00</time>
      </trkpt>
      <trkpt lat="43.93673" lon="0.62775">
        <ele>148</ele>
        <time>2021-03-13T19:36:40+01:00</time>
      </trkpt>
      <trkpt lat="43.93671" lon="0.62725">
        <ele>150</ele>
        <time>2021-03-13T19:36:45+01:00</time>
      </trkpt>
      <trkpt lat="43.93673" lon="0.62679">
        <ele>153</ele>
        <time>2021-03-13T19:36:50+01:00</time>
      </trkpt>
      <trkpt lat="43.93676" lon="0.6263">
        <ele>154</ele>
        <time>2021-03-13T19:36:55+01:00</time>
      </trkpt>
      <trkpt lat="43.93668" lon="0.62588">
        <ele>154</ele>
        <time>2021-03-13T19:37:00+01:00</time>
      </trkpt>
      <trkpt lat="43.93657" lon="0.62549">
        <ele>155</ele>
        <time>2021-03-13T19:37:05+01:00</time>
      </trkpt>
      <trkpt lat="43.93652" lon="0.62534">
        <ele>155</ele>
        <time>2021-03-13T19:37:10+01:00</time>
      </trkpt>
      <trkpt lat="43.93638" lon="0.62515">
        <ele>155</ele>
        <time>2021-03-13T19:37:15+01:00</time>
      </trkpt>
      <trkpt lat="43.93626" lon="0.62505">
        <ele>156</ele>
        <time>2021-03-13T19:37:20+01:00</time>
      </trkpt>
      <trkpt lat="43.93615" lon="0.62501">
        <ele>158</ele>
        <time>2021-03-13T19:37:25+01:00</time>
      </trkpt>
      <trkpt lat="43.93612" lon="0.62501">
        <ele>159</ele>
        <time>2021-03-13T19:37:30+01:00</time>
      </trkpt>
      <trkpt lat="43.93612" lon="0.62499">
        <ele>159</ele>
        <time>2021-03-13T19:37:35+01:00</time>
      </trkpt>
      <trkpt lat="43.93612" lon="0.62498">
        <ele>158</ele>
        <time>2021-03-13T19:37:40+01:00</time>
      </trkpt>
      <trkpt lat="43.9361" lon="0.62495">
        <ele>158</ele>
        <time>2021-03-13T19:37:45+01:00</time>
      </trkpt>
      <trkpt lat="43.93606" lon="0.62493">
        <ele>158</ele>
        <time>2021-03-13T19:37:50+01:00</time>
      </trkpt>
      <trkpt lat="43.93598" lon="0.62471">
        <ele>156</ele>
        <time>2021-03-13T19:37:55+01:00</time>
      </trkpt>
      <trkpt lat="43.93587" lon="0.62449">
        <ele>156</ele>
        <time>2021-03-13T19:38:00+01:00</time>
      </trkpt>
      <trkpt lat="43.9357" lon="0.62434">
        <ele>158</ele>
        <time>2021-03-13T19:38:05+01:00</time>
      </trkpt>
      <trkpt lat="43.93536" lon="0.62439">
        <ele>165</ele>
        <time>2021-03-13T19:38:10+01:00</time>
      </trkpt>
      <trkpt lat="43.93523" lon="0.62439">
        <ele>168</ele>
        <time>2021-03-13T19:38:15+01:00</time>
      </trkpt>
      <trkpt lat="43.93493" lon="0.62456">
        <ele>171</ele>
        <time>2021-03-13T19:38:20+01:00</time>
      </trkpt>
      <trkpt lat="43.93455" lon="0.62485">
        <ele>174</ele>
        <time>2021-03-13T19:38:25+01:00</time>
      </trkpt>
      <trkpt lat="43.9344" lon="0.62498">
        <ele>175</ele>
        <time>2021-03-13T19:38:30+01:00</time>
      </trkpt>
      <trkpt lat="43.93423" lon="0.62495">
        <ele>176</ele>
        <time>2021-03-13T19:38:35+01:00</time>
      </trkpt>
      <trkpt lat="43.93414" lon="0.6249">
        <ele>177</ele>
        <time>2021-03-13T19:38:40+01:00</time>
      </trkpt>
      <trkpt lat="43.93411" lon="0.62366">
        <ele>180</ele>
        <time>2021-03-13T19:38:45+01:00</time>
      </trkpt>
      <trkpt lat="43.93409" lon="0.62328">
        <ele>180</ele>
        <time>2021-03-13T19:38:50+01:00</time>
      </trkpt>
      <trkpt lat="43.93409" lon="0.6232">
        <ele>180</ele>
        <time>2021-03-13T19:38:55+01:00</time>
      </trkpt>
      <trkpt lat="43.93409" lon="0.6232">
        <ele>180</ele>
        <time>2021-03-13T19:39:00+01:00</time>
      </trkpt>
      <trkpt lat="43.93408" lon="0.62322">
        <ele>180</ele>
        <time>2021-03-13T19:39:05+01:00</time>
      </trkpt>
      <trkpt lat="43.93408" lon="0.62322">
        <ele>180</ele>
        <time>2021-03-13T19:39:10+01:00</time>
      </trkpt>
      <trkpt lat="43.93408" lon="0.62322">
        <ele>180</ele>
        <time>2021-03-13T19:39:15+01:00</time>
      </trkpt>
      <trkpt lat="43.93406" lon="0.62311">
        <ele>179</ele>
        <time>2021-03-13T19:39:20+01:00</time>
      </trkpt>
      <trkpt lat="43.93407" lon="0.62254">
        <ele>179</ele>
        <time>2021-03-13T19:39:25+01:00</time>
      </trkpt>
      <trkpt lat="43.93414" lon="0.62194">
        <ele>180</ele>
        <time>2021-03-13T19:39:30+01:00</time>
      </trkpt>
      <trkpt lat="43.93428" lon="0.62134">
        <ele>179</ele>
        <time>2021-03-13T19:39:35+01:00</time>
      </trkpt>
      <trkpt lat="43.93444" lon="0.6208">
        <ele>180</ele>
        <time>2021-03-13T19:39:40+01:00</time>
      </trkpt>
      <trkpt lat="43.93465" lon="0.62009">
        <ele>178</ele>
        <time>2021-03-13T19:39:45+01:00</time>
      </trkpt>
      <trkpt lat="43.9349" lon="0.61906">
        <ele>175</ele>
        <time>2021-03-13T19:39:50+01:00</time>
      </trkpt>
      <trkpt lat="43.93545" lon="0.61706">
        <ele>167</ele>
        <time>2021-03-13T19:39:55+01:00</time>
      </trkpt>
      <trkpt lat="43.9357" lon="0.61723">
        <ele>164</ele>
        <time>2021-03-13T19:40:00+01:00</time>
      </trkpt>
      <trkpt lat="43.936" lon="0.61736">
        <ele>157</ele>
        <time>2021-03-13T19:40:05+01:00</time>
      </trkpt>
      <trkpt lat="43.93613" lon="0.61733">
        <ele>154</ele>
        <time>2021-03-13T19:40:10+01:00</time>
      </trkpt>
      <trkpt lat="43.93622" lon="0.61723">
        <ele>152</ele>
        <time>2021-03-13T19:40:15+01:00</time>
      </trkpt>
      <trkpt lat="43.93627" lon="0.61699">
        <ele>152</ele>
        <time>2021-03-13T19:40:20+01:00</time>
      </trkpt>
      <trkpt lat="43.93634" lon="0.61665">
        <ele>151</ele>
        <time>2021-03-13T19:40:25+01:00</time>
      </trkpt>
      <trkpt lat="43.93644" lon="0.61585">
        <ele>151</ele>
        <time>2021-03-13T19:40:30+01:00</time>
      </trkpt>
      <trkpt lat="43.93648" lon="0.61544">
        <ele>147</ele>
        <time>2021-03-13T19:40:35+01:00</time>
      </trkpt>
      <trkpt lat="43.93647" lon="0.61527">
        <ele>145</ele>
        <time>2021-03-13T19:40:40+01:00</time>
      </trkpt>
      <trkpt lat="43.93634" lon="0.61505">
        <ele>143</ele>
        <time>2021-03-13T19:40:45+01:00</time>
      </trkpt>
      <trkpt lat="43.93611" lon="0.61488">
        <ele>142</ele>
        <time>2021-03-13T19:40:50+01:00</time>
      </trkpt>
      <trkpt lat="43.93629" lon="0.61478">
        <ele>140</ele>
        <time>2021-03-13T19:40:55+01:00</time>
      </trkpt>
      <trkpt lat="43.93651" lon="0.61476">
        <ele>139</ele>
        <time>2021-03-13T19:41:00+01:00</time>
      </trkpt>
      <trkpt lat="43.93676" lon="0.61476">
        <ele>137</ele>
        <time>2021-03-13T19:41:05+01:00</time>
      </trkpt>
      <trkpt lat="43.93687" lon="0.61472">
        <ele>135</ele>
        <time>2021-03-13T19:41:10+01:00</time>
      </trkpt>
      <trkpt lat="43.93687" lon="0.6146">
        <ele>132</ele>
        <time>2021-03-13T19:41:15+01:00</time>
      </trkpt>
      <trkpt lat="43.93674" lon="0.61437">
        <ele>127</ele>
        <time>2021-03-13T19:41:20+01:00</time>
      </trkpt>
      <trkpt lat="43.93624" lon="0.61379">
        <ele>118</ele>
        <time>2021-03-13T19:41:25+01:00</time>
      </trkpt>
      <trkpt lat="43.93604" lon="0.61331">
        <ele>109</ele>
        <time>2021-03-13T19:41:30+01:00</time>
      </trkpt>
      <trkpt lat="43.93593" lon="0.61295">
        <ele>103</ele>
        <time>2021-03-13T19:41:35+01:00</time>
      </trkpt>
      <trkpt lat="43.93571" lon="0.61271">
        <ele>98</ele>
        <time>2021-03-13T19:41:40+01:00</time>
      </trkpt>
      <trkpt lat="43.93536" lon="0.61243">
        <ele>95</ele>
        <time>2021-03-13T19:41:45+01:00</time>
      </trkpt>
      <trkpt lat="43.93506" lon="0.61248">
        <ele>95</ele>
        <time>2021-03-13T19:41:50+01:00</time>
      </trkpt>
      <trkpt lat="43.93466" lon="0.61266">
        <ele>96</ele>
        <time>2021-03-13T19:41:55+01:00</time>
      </trkpt>
      <trkpt lat="43.9346" lon="0.61262">
        <ele>95</ele>
        <time>2021-03-13T19:42:00+01:00</time>
      </trkpt>
      <trkpt lat="43.93452" lon="0.61263">
        <ele>95</ele>
        <time>2021-03-13T19:42:05+01:00</time>
      </trkpt>
      <trkpt lat="43.93415" lon="0.6128">
        <ele>94</ele>
        <time>2021-03-13T19:42:10+01:00</time>
      </trkpt>
      <trkpt lat="43.93376" lon="0.61297">
        <ele>92</ele>
        <time>2021-03-13T19:42:15+01:00</time>
      </trkpt>
      <trkpt lat="43.93367" lon="0.61299">
        <ele>91</ele>
        <time>2021-03-13T19:42:20+01:00</time>
      </trkpt>
      <trkpt lat="43.93374" lon="0.61268">
        <ele>87</ele>
        <time>2021-03-13T19:42:25+01:00</time>
      </trkpt>
      <trkpt lat="43.93383" lon="0.61241">
        <ele>83</ele>
        <time>2021-03-13T19:42:30+01:00</time>
      </trkpt>
      <trkpt lat="43.93394" lon="0.61196">
        <ele>77</ele>
        <time>2021-03-13T19:42:35+01:00</time>
      </trkpt>
      <trkpt lat="43.93405" lon="0.61121">
        <ele>77</ele>
        <time>2021-03-13T19:42:40+01:00</time>
      </trkpt>
      <trkpt lat="43.93415" lon="0.61054">
        <ele>77</ele>
        <time>2021-03-13T19:42:45+01:00</time>
      </trkpt>
      <trkpt lat="43.93415" lon="0.61054">
        <ele>77</ele>
        <time>2021-03-13T19:42:50+01:00</time>
      </trkpt>
      <trkpt lat="43.93425" lon="0.60986">
        <ele>77</ele>
        <time>2021-03-13T19:42:55+01:00</time>
      </trkpt>
      <trkpt lat="43.93436" lon="0.60906">
        <ele>77</ele>
        <time>2021-03-13T19:43:00+01:00</time>
      </trkpt>
      <trkpt lat="43.93439" lon="0.60907">
        <ele>76</ele>
        <time>2021-03-13T19:43:05+01:00</time>
      </trkpt>
      <trkpt lat="43.93446" lon="0.6091">
        <ele>76</ele>
        <time>2021-03-13T19:43:10+01:00</time>
      </trkpt>
      <trkpt lat="43.93449" lon="0.60917">
        <ele>76</ele>
        <time>2021-03-13T19:43:15+01:00</time>
      </trkpt>
      <trkpt lat="43.93456" lon="0.60939">
        <ele>76</ele>
        <time>2021-03-13T19:43:20+01:00</time>
      </trkpt>
      <trkpt lat="43.93464" lon="0.60966">
        <ele>76</ele>
        <time>2021-03-13T19:43:25+01:00</time>
      </trkpt>
      <trkpt lat="43.93467" lon="0.60976">
        <ele>76</ele>
        <time>2021-03-13T19:43:30+01:00</time>
      </trkpt>
      <trkpt lat="43.93472" lon="0.6098">
        <ele>76</ele>
        <time>2021-03-13T19:43:35+01:00</time>
      </trkpt>
      <trkpt lat="43.9348" lon="0.60982">
        <ele>76</ele>
        <time>2021-03-13T19:43:40+01:00</time>
      </trkpt>
      <trkpt lat="43.93502" lon="0.60984">
        <ele>76</ele>
        <time>2021-03-13T19:43:45+01:00</time>
      </trkpt>
      <trkpt lat="43.93519" lon="0.6099">
        <ele>76</ele>
        <time>2021-03-13T19:43:50+01:00</time>
      </trkpt>
      <trkpt lat="43.93534" lon="0.60992">
        <ele>76</ele>
        <time>2021-03-13T19:43:55+01:00</time>
      </trkpt>
      <trkpt lat="43.93551" lon="0.60986">
        <ele>76</ele>
        <time>2021-03-13T19:44:00+01:00</time>
      </trkpt>
      <trkpt lat="43.93564" lon="0.60973">
        <ele>76</ele>
        <time>2021-03-13T19:44:05+01:00</time>
      </trkpt>
      <trkpt lat="43.93584" lon="0.60943">
        <ele>76</ele>
        <time>2021-03-13T19:44:10+01:00</time>
      </trkpt>
      <trkpt lat="43.93591" lon="0.60929">
        <ele>76</ele>
        <time>2021-03-13T19:44:15+01:00</time>
      </trkpt>
      <trkpt lat="43.93617" lon="0.60854">
        <ele>76</ele>
        <time>2021-03-13T19:44:20+01:00</time>
      </trkpt>
      <trkpt lat="43.93639" lon="0.60804">
        <ele>77</ele>
        <time>2021-03-13T19:44:25+01:00</time>
      </trkpt>
      <trkpt lat="43.93653" lon="0.60782">
        <ele>77</ele>
        <time>2021-03-13T19:44:30+01:00</time>
      </trkpt>
      <trkpt lat="43.93675" lon="0.60759">
        <ele>77</ele>
        <time>2021-03-13T19:44:35+01:00</time>
      </trkpt>
      <trkpt lat="43.93694" lon="0.60738">
        <ele>77</ele>
        <time>2021-03-13T19:44:40+01:00</time>
      </trkpt>
      <trkpt lat="43.93694" lon="0.60738">
        <ele>77</ele>
        <time>2021-03-13T19:44:45+01:00</time>
      </trkpt>
      <trkpt lat="43.93723" lon="0.60696">
        <ele>77</ele>
        <time>2021-03-13T19:44:50+01:00</time>
      </trkpt>
      <trkpt lat="43.93736" lon="0.60674">
        <ele>77</ele>
        <time>2021-03-13T19:44:55+01:00</time>
      </trkpt>
      <trkpt lat="43.93739" lon="0.60661">
        <ele>77</ele>
        <time>2021-03-13T19:45:00+01:00</time>
      </trkpt>
      <trkpt lat="43.93741" lon="0.60625">
        <ele>77</ele>
        <time>2021-03-13T19:45:05+01:00</time>
      </trkpt>
      <trkpt lat="43.93742" lon="0.60584">
        <ele>77</ele>
        <time>2021-03-13T19:45:10+01:00</time>
      </trkpt>
      <trkpt lat="43.93745" lon="0.60535">
        <ele>77</ele>
        <time>2021-03-13T19:45:15+01:00</time>
      </trkpt>
      <trkpt lat="43.93755" lon="0.60468">
        <ele>77</ele>
        <time>2021-03-13T19:45:20+01:00</time>
      </trkpt>
      <trkpt lat="43.93766" lon="0.60402">
        <ele>77</ele>
        <time>2021-03-13T19:45:25+01:00</time>
      </trkpt>
      <trkpt lat="43.93771" lon="0.60377">
        <ele>77</ele>
        <time>2021-03-13T19:45:30+01:00</time>
      </trkpt>
      <trkpt lat="43.93786" lon="0.60345">
        <ele>79</ele>
        <time>2021-03-13T19:45:35+01:00</time>
      </trkpt>
      <trkpt lat="43.93795" lon="0.60332">
        <ele>79</ele>
        <time>2021-03-13T19:45:40+01:00</time>
      </trkpt>
      <trkpt lat="43.93804" lon="0.60318">
        <ele>80</ele>
        <time>2021-03-13T19:45:45+01:00</time>
      </trkpt>
      <trkpt lat="43.93804" lon="0.60307">
        <ele>81</ele>
        <time>2021-03-13T19:45:50+01:00</time>
      </trkpt>
      <trkpt lat="43.93803" lon="0.6029">
        <ele>82</ele>
        <time>2021-03-13T19:45:55+01:00</time>
      </trkpt>
      <trkpt lat="43.938" lon="0.60258">
        <ele>84</ele>
        <time>2021-03-13T19:46:00+01:00</time>
      </trkpt>
      <trkpt lat="43.93771" lon="0.60147">
        <ele>90</ele>
        <time>2021-03-13T19:46:05+01:00</time>
      </trkpt>
      <trkpt lat="43.93758" lon="0.60097">
        <ele>91</ele>
        <time>2021-03-13T19:46:10+01:00</time>
      </trkpt>
      <trkpt lat="43.93758" lon="0.60097">
        <ele>91</ele>
        <time>2021-03-13T19:46:15+01:00</time>
      </trkpt>
      <trkpt lat="43.93721" lon="0.59945">
        <ele>93</ele>
        <time>2021-03-13T19:46:20+01:00</time>
      </trkpt>
      <trkpt lat="43.93709" lon="0.59889">
        <ele>94</ele>
        <time>2021-03-13T19:46:25+01:00</time>
      </trkpt>
      <trkpt lat="43.93704" lon="0.59774">
        <ele>96</ele>
        <time>2021-03-13T19:46:30+01:00</time>
      </trkpt>
      <trkpt lat="43.93702" lon="0.59697">
        <ele>98</ele>
        <time>2021-03-13T19:46:35+01:00</time>
      </trkpt>
      <trkpt lat="43.93703" lon="0.59674">
        <ele>99</ele>
        <time>2021-03-13T19:46:40+01:00</time>
      </trkpt>
      <trkpt lat="43.9371" lon="0.59639">
        <ele>100</ele>
        <time>2021-03-13T19:46:45+01:00</time>
      </trkpt>
      <trkpt lat="43.93713" lon="0.59604">
        <ele>101</ele>
        <time>2021-03-13T19:46:50+01:00</time>
      </trkpt>
      <trkpt lat="43.93713" lon="0.59585">
        <ele>102</ele>
        <time>2021-03-13T19:46:55+01:00</time>
      </trkpt>
      <trkpt lat="43.9371" lon="0.59559">
        <ele>103</ele>
        <time>2021-03-13T19:47:00+01:00</time>
      </trkpt>
      <trkpt lat="43.93705" lon="0.59513">
        <ele>104</ele>
        <time>2021-03-13T19:47:05+01:00</time>
      </trkpt>
      <trkpt lat="43.93694" lon="0.59452">
        <ele>107</ele>
        <time>2021-03-13T19:47:10+01:00</time>
      </trkpt>
      <trkpt lat="43.93694" lon="0.59435">
        <ele>108</ele>
        <time>2021-03-13T19:47:15+01:00</time>
      </trkpt>
      <trkpt lat="43.93715" lon="0.59395">
        <ele>110</ele>
        <time>2021-03-13T19:47:20+01:00</time>
      </trkpt>
      <trkpt lat="43.93735" lon="0.59331">
        <ele>113</ele>
        <time>2021-03-13T19:47:25+01:00</time>
      </trkpt>
      <trkpt lat="43.93749" lon="0.59299">
        <ele>114</ele>
        <time>2021-03-13T19:47:30+01:00</time>
      </trkpt>
      <trkpt lat="43.93767" lon="0.59264">
        <ele>114</ele>
        <time>2021-03-13T19:47:35+01:00</time>
      </trkpt>
      <trkpt lat="43.93781" lon="0.59236">
        <ele>114</ele>
        <time>2021-03-13T19:47:40+01:00</time>
      </trkpt>
      <trkpt lat="43.93789" lon="0.59224">
        <ele>114</ele>
        <time>2021-03-13T19:47:45+01:00</time>
      </trkpt>
      <trkpt lat="43.93817" lon="0.59185">
        <ele>112</ele>
        <time>2021-03-13T19:47:50+01:00</time>
      </trkpt>
      <trkpt lat="43.93818" lon="0.59179">
        <ele>112</ele>
        <time>2021-03-13T19:47:55+01:00</time>
      </trkpt>
      <trkpt lat="43.93816" lon="0.59167">
        <ele>113</ele>
        <time>2021-03-13T19:48:00+01:00</time>
      </trkpt>
      <trkpt lat="43.9381" lon="0.59153">
        <ele>113</ele>
        <time>2021-03-13T19:48:05+01:00</time>
      </trkpt>
      <trkpt lat="43.93805" lon="0.59143">
        <ele>112</ele>
        <time>2021-03-13T19:48:10+01:00</time>
      </trkpt>
      <trkpt lat="43.93799" lon="0.59121">
        <ele>111</ele>
        <time>2021-03-13T19:48:15+01:00</time>
      </trkpt>
      <trkpt lat="43.93785" lon="0.59072">
        <ele>108</ele>
        <time>2021-03-13T19:48:20+01:00</time>
      </trkpt>
      <trkpt lat="43.93785" lon="0.59072">
        <ele>108</ele>
        <time>2021-03-13T19:48:25+01:00</time>
      </trkpt>
      <trkpt lat="43.93775" lon="0.59042">
        <ele>107</ele>
        <time>2021-03-13T19:48:30+01:00</time>
      </trkpt>
      <trkpt lat="43.93773" lon="0.59013">
        <ele>107</ele>
        <time>2021-03-13T19:48:35+01:00</time>
      </trkpt>
      <trkpt lat="43.93772" lon="0.58991">
        <ele>107</ele>
        <time>2021-03-13T19:48:40+01:00</time>
      </trkpt>
      <trkpt lat="43.93768" lon="0.58973">
        <ele>108</ele>
        <time>2021-03-13T19:48:45+01:00</time>
      </trkpt>
      <trkpt lat="43.93743" lon="0.5887">
        <ele>111</ele>
        <time>2021-03-13T19:48:50+01:00</time>
      </trkpt>
      <trkpt lat="43.93738" lon="0.58851">
        <ele>112</ele>
        <time>2021-03-13T19:48:55+01:00</time>
      </trkpt>
      <trkpt lat="43.93727" lon="0.58836">
        <ele>114</ele>
        <time>2021-03-13T19:49:00+01:00</time>
      </trkpt>
      <trkpt lat="43.93715" lon="0.58809">
        <ele>116</ele>
        <time>2021-03-13T19:49:05+01:00</time>
      </trkpt>
      <trkpt lat="43.93693" lon="0.58738">
        <ele>121</ele>
        <time>2021-03-13T19:49:10+01:00</time>
      </trkpt>
      <trkpt lat="43.93687" lon="0.58706">
        <ele>124</ele>
        <time>2021-03-13T19:49:15+01:00</time>
      </trkpt>
      <trkpt lat="43.93673" lon="0.58621">
        <ele>127</ele>
        <time>2021-03-13T19:49:20+01:00</time>
      </trkpt>
      <trkpt lat="43.93665" lon="0.58573">
        <ele>128</ele>
        <time>2021-03-13T19:49:25+01:00</time>
      </trkpt>
      <trkpt lat="43.9366" lon="0.58495">
        <ele>131</ele>
        <time>2021-03-13T19:49:30+01:00</time>
      </trkpt>
      <trkpt lat="43.93657" lon="0.5847">
        <ele>131</ele>
        <time>2021-03-13T19:49:35+01:00</time>
      </trkpt>
      <trkpt lat="43.93653" lon="0.58457">
        <ele>132</ele>
        <time>2021-03-13T19:49:40+01:00</time>
      </trkpt>
      <trkpt lat="43.93653" lon="0.58459">
        <ele>132</ele>
        <time>2021-03-13T19:49:45+01:00</time>
      </trkpt>
      <trkpt lat="43.93649" lon="0.58463">
        <ele>132</ele>
        <time>2021-03-13T19:49:50+01:00</time>
      </trkpt>
      <trkpt lat="43.93605" lon="0.58471">
        <ele>136</ele>
        <time>2021-03-13T19:49:55+01:00</time>
      </trkpt>
      <trkpt lat="43.93531" lon="0.58477">
        <ele>147</ele>
        <time>2021-03-13T19:50:00+01:00</time>
      </trkpt>
      <trkpt lat="43.93524" lon="0.58479">
        <ele>148</ele>
        <time>2021-03-13T19:50:05+01:00</time>
      </trkpt>
      <trkpt lat="43.93515" lon="0.58506">
        <ele>151</ele>
        <time>2021-03-13T19:50:10+01:00</time>
      </trkpt>
      <trkpt lat="43.93502" lon="0.58564">
        <ele>154</ele>
        <time>2021-03-13T19:50:15+01:00</time>
      </trkpt>
      <trkpt lat="43.93498" lon="0.58574">
        <ele>154</ele>
        <time>2021-03-13T19:50:20+01:00</time>
      </trkpt>
      <trkpt lat="43.93496" lon="0.58565">
        <ele>154</ele>
        <time>2021-03-13T19:50:25+01:00</time>
      </trkpt>
      <trkpt lat="43.9349" lon="0.58525">
        <ele>155</ele>
        <time>2021-03-13T19:50:30+01:00</time>
      </trkpt>
      <trkpt lat="43.93479" lon="0.58476">
        <ele>155</ele>
        <time>2021-03-13T19:50:35+01:00</time>
      </trkpt>
      <trkpt lat="43.9345" lon="0.58381">
        <ele>156</ele>
        <time>2021-03-13T19:50:40+01:00</time>
      </trkpt>
      <trkpt lat="43.9345" lon="0.58381">
        <ele>156</ele>
        <time>2021-03-13T19:50:45+01:00</time>
      </trkpt>
      <trkpt lat="43.93442" lon="0.58343">
        <ele>156</ele>
        <time>2021-03-13T19:50:50+01:00</time>
      </trkpt>
      <trkpt lat="43.9344" lon="0.58278">
        <ele>158</ele>
        <time>2021-03-13T19:50:55+01:00</time>
      </trkpt>
      <trkpt lat="43.93434" lon="0.58097">
        <ele>162</ele>
        <time>2021-03-13T19:51:00+01:00</time>
      </trkpt>
      <trkpt lat="43.93423" lon="0.58002">
        <ele>164</ele>
        <time>2021-03-13T19:51:05+01:00</time>
      </trkpt>
      <trkpt lat="43.93411" lon="0.57889">
        <ele>166</ele>
        <time>2021-03-13T19:51:10+01:00</time>
      </trkpt>
      <trkpt lat="43.93401" lon="0.57801">
        <ele>168</ele>
        <time>2021-03-13T19:51:15+01:00</time>
      </trkpt>
      <trkpt lat="43.93401" lon="0.57754">
        <ele>169</ele>
        <time>2021-03-13T19:51:20+01:00</time>
      </trkpt>
      <trkpt lat="43.93402" lon="0.57687">
        <ele>171</ele>
        <time>2021-03-13T19:51:25+01:00</time>
      </trkpt>
      <trkpt lat="43.93404" lon="0.57671">
        <ele>172</ele>
        <time>2021-03-13T19:51:30+01:00</time>
      </trkpt>
      <trkpt lat="43.93414" lon="0.5761">
        <ele>174</ele>
        <time>2021-03-13T19:51:35+01:00</time>
      </trkpt>
      <trkpt lat="43.93428" lon="0.57555">
        <ele>176</ele>
        <time>2021-03-13T19:51:40+01:00</time>
      </trkpt>
      <trkpt lat="43.93438" lon="0.57521">
        <ele>177</ele>
        <time>2021-03-13T19:51:45+01:00</time>
      </trkpt>
      <trkpt lat="43.93448" lon="0.5749">
        <ele>178</ele>
        <time>2021-03-13T19:51:50+01:00</time>
      </trkpt>
      <trkpt lat="43.9347" lon="0.57427">
        <ele>180</ele>
        <time>2021-03-13T19:51:55+01:00</time>
      </trkpt>
      <trkpt lat="43.93504" lon="0.57346">
        <ele>181</ele>
        <time>2021-03-13T19:52:00+01:00</time>
      </trkpt>
      <trkpt lat="43.93525" lon="0.57306">
        <ele>182</ele>
        <time>2021-03-13T19:52:05+01:00</time>
      </trkpt>
      <trkpt lat="43.9354" lon="0.57297">
        <ele>182</ele>
        <time>2021-03-13T19:52:10+01:00</time>
      </trkpt>
      <trkpt lat="43.93553" lon="0.57293">
        <ele>182</ele>
        <time>2021-03-13T19:52:15+01:00</time>
      </trkpt>
      <trkpt lat="43.93571" lon="0.57284">
        <ele>183</ele>
        <time>2021-03-13T19:52:20+01:00</time>
      </trkpt>
      <trkpt lat="43.93586" lon="0.57273">
        <ele>184</ele>
        <time>2021-03-13T19:52:25+01:00</time>
      </trkpt>
      <trkpt lat="43.93615" lon="0.57249">
        <ele>185</ele>
        <time>2021-03-13T19:52:30+01:00</time>
      </trkpt>
      <trkpt lat="43.93621" lon="0.57242">
        <ele>185</ele>
        <time>2021-03-13T19:52:35+01:00</time>
      </trkpt>
      <trkpt lat="43.93621" lon="0.57243">
        <ele>185</ele>
        <time>2021-03-13T19:52:40+01:00</time>
      </trkpt>
      <trkpt lat="43.93637" lon="0.57219">
        <ele>185</ele>
        <time>2021-03-13T19:52:45+01:00</time>
      </trkpt>
      <trkpt lat="43.93654" lon="0.57175">
        <ele>185</ele>
        <time>2021-03-13T19:52:50+01:00</time>
      </trkpt>
      <trkpt lat="43.93681" lon="0.57103">
        <ele>186</ele>
        <time>2021-03-13T19:52:55+01:00</time>
      </trkpt>
      <trkpt lat="43.93738" lon="0.56951">
        <ele>186</ele>
        <time>2021-03-13T19:53:00+01:00</time>
      </trkpt>
      <trkpt lat="43.9375" lon="0.56909">
        <ele>185</ele>
        <time>2021-03-13T19:53:05+01:00</time>
      </trkpt>
      <trkpt lat="43.93762" lon="0.56855">
        <ele>183</ele>
        <time>2021-03-13T19:53:10+01:00</time>
      </trkpt>
      <trkpt lat="43.9378" lon="0.56796">
        <ele>179</ele>
        <time>2021-03-13T19:53:15+01:00</time>
      </trkpt>
      <trkpt lat="43.93787" lon="0.56759">
        <ele>177</ele>
        <time>2021-03-13T19:53:20+01:00</time>
      </trkpt>
      <trkpt lat="43.93789" lon="0.56738">
        <ele>176</ele>
        <time>2021-03-13T19:53:25+01:00</time>
      </trkpt>
      <trkpt lat="43.93788" lon="0.56708">
        <ele>174</ele>
        <time>2021-03-13T19:53:30+01:00</time>
      </trkpt>
      <trkpt lat="43.93784" lon="0.56648">
        <ele>171</ele>
        <time>2021-03-13T19:53:35+01:00</time>
      </trkpt>
      <trkpt lat="43.93785" lon="0.56609">
        <ele>170</ele>
        <time>2021-03-13T19:53:40+01:00</time>
      </trkpt>
      <trkpt lat="43.93789" lon="0.56562">
        <ele>166</ele>
        <time>2021-03-13T19:53:45+01:00</time>
      </trkpt>
      <trkpt lat="43.93789" lon="0.5653">
        <ele>165</ele>
        <time>2021-03-13T19:53:50+01:00</time>
      </trkpt>
      <trkpt lat="43.9379" lon="0.56503">
        <ele>165</ele>
        <time>2021-03-13T19:53:55+01:00</time>
      </trkpt>
      <trkpt lat="43.93796" lon="0.56474">
        <ele>165</ele>
        <time>2021-03-13T19:54:00+01:00</time>
      </trkpt>
      <trkpt lat="43.93809" lon="0.56442">
        <ele>165</ele>
        <time>2021-03-13T19:54:05+01:00</time>
      </trkpt>
      <trkpt lat="43.9385" lon="0.56346">
        <ele>171</ele>
        <time>2021-03-13T19:54:10+01:00</time>
      </trkpt>
      <trkpt lat="43.93866" lon="0.56302">
        <ele>174</ele>
        <time>2021-03-13T19:54:15+01:00</time>
      </trkpt>
      <trkpt lat="43.93875" lon="0.56267">
        <ele>176</ele>
        <time>2021-03-13T19:54:20+01:00</time>
      </trkpt>
      <trkpt lat="43.93886" lon="0.56225">
        <ele>177</ele>
        <time>2021-03-13T19:54:25+01:00</time>
      </trkpt>
      <trkpt lat="43.93906" lon="0.56173">
        <ele>177</ele>
        <time>2021-03-13T19:54:30+01:00</time>
      </trkpt>
      <trkpt lat="43.93919" lon="0.56129">
        <ele>177</ele>
        <time>2021-03-13T19:54:35+01:00</time>
      </trkpt>
      <trkpt lat="43.93933" lon="0.5607">
        <ele>178</ele>
        <time>2021-03-13T19:54:40+01:00</time>
      </trkpt>
      <trkpt lat="43.93942" lon="0.56018">
        <ele>178</ele>
        <time>2021-03-13T19:54:45+01:00</time>
      </trkpt>
      <trkpt lat="43.93955" lon="0.55941">
        <ele>178</ele>
        <time>2021-03-13T19:54:50+01:00</time>
      </trkpt>
      <trkpt lat="43.9396" lon="0.55921">
        <ele>179</ele>
        <time>2021-03-13T19:54:55+01:00</time>
      </trkpt>
      <trkpt lat="43.93973" lon="0.55885">
        <ele>178</ele>
        <time>2021-03-13T19:55:00+01:00</time>
      </trkpt>
      <trkpt lat="43.93984" lon="0.55856">
        <ele>178</ele>
        <time>2021-03-13T19:55:05+01:00</time>
      </trkpt>
      <trkpt lat="43.93984" lon="0.55856">
        <ele>178</ele>
        <time>2021-03-13T19:55:10+01:00</time>
      </trkpt>
      <trkpt lat="43.9401" lon="0.55788">
        <ele>177</ele>
        <time>2021-03-13T19:55:15+01:00</time>
      </trkpt>
      <trkpt lat="43.94024" lon="0.55754">
        <ele>176</ele>
        <time>2021-03-13T19:55:20+01:00</time>
      </trkpt>
      <trkpt lat="43.9405" lon="0.55684">
        <ele>175</ele>
        <time>2021-03-13T19:55:25+01:00</time>
      </trkpt>
      <trkpt lat="43.94059" lon="0.55652">
        <ele>174</ele>
        <time>2021-03-13T19:55:30+01:00</time>
      </trkpt>
      <trkpt lat="43.94105" lon="0.55562">
        <ele>173</ele>
        <time>2021-03-13T19:55:35+01:00</time>
      </trkpt>
      <trkpt lat="43.94126" lon="0.5553">
        <ele>173</ele>
        <time>2021-03-13T19:55:40+01:00</time>
      </trkpt>
      <trkpt lat="43.94187" lon="0.55458">
        <ele>170</ele>
        <time>2021-03-13T19:55:45+01:00</time>
      </trkpt>
      <trkpt lat="43.94207" lon="0.55437">
        <ele>168</ele>
        <time>2021-03-13T19:55:50+01:00</time>
      </trkpt>
      <trkpt lat="43.94207" lon="0.55428">
        <ele>168</ele>
        <time>2021-03-13T19:55:55+01:00</time>
      </trkpt>
      <trkpt lat="43.94206" lon="0.55403">
        <ele>169</ele>
        <time>2021-03-13T19:56:00+01:00</time>
      </trkpt>
      <trkpt lat="43.94208" lon="0.55364">
        <ele>169</ele>
        <time>2021-03-13T19:56:05+01:00</time>
      </trkpt>
      <trkpt lat="43.94209" lon="0.55348">
        <ele>169</ele>
        <time>2021-03-13T19:56:10+01:00</time>
      </trkpt>
      <trkpt lat="43.94214" lon="0.55337">
        <ele>169</ele>
        <time>2021-03-13T19:56:15+01:00</time>
      </trkpt>
      <trkpt lat="43.9423" lon="0.55314">
        <ele>169</ele>
        <time>2021-03-13T19:56:20+01:00</time>
      </trkpt>
      <trkpt lat="43.94257" lon="0.55277">
        <ele>169</ele>
        <time>2021-03-13T19:56:25+01:00</time>
      </trkpt>
      <trkpt lat="43.94351" lon="0.55142">
        <ele>171</ele>
        <time>2021-03-13T19:56:30+01:00</time>
      </trkpt>
      <trkpt lat="43.94351" lon="0.55142">
        <ele>171</ele>
        <time>2021-03-13T19:56:35+01:00</time>
      </trkpt>
      <trkpt lat="43.94368" lon="0.55121">
        <ele>170</ele>
        <time>2021-03-13T19:56:40+01:00</time>
      </trkpt>
      <trkpt lat="43.94378" lon="0.55121">
        <ele>170</ele>
        <time>2021-03-13T19:56:45+01:00</time>
      </trkpt>
      <trkpt lat="43.94386" lon="0.55118">
        <ele>170</ele>
        <time>2021-03-13T19:56:50+01:00</time>
      </trkpt>
      <trkpt lat="43.9439" lon="0.55112">
        <ele>170</ele>
        <time>2021-03-13T19:56:55+01:00</time>
      </trkpt>
      <trkpt lat="43.94401" lon="0.55089">
        <ele>170</ele>
        <time>2021-03-13T19:57:00+01:00</time>
      </trkpt>
      <trkpt lat="43.94424" lon="0.55038">
        <ele>170</ele>
        <time>2021-03-13T19:57:05+01:00</time>
      </trkpt>
      <trkpt lat="43.94434" lon="0.55024">
        <ele>170</ele>
        <time>2021-03-13T19:57:10+01:00</time>
      </trkpt>
      <trkpt lat="43.94452" lon="0.55011">
        <ele>169</ele>
        <time>2021-03-13T19:57:15+01:00</time>
      </trkpt>
      <trkpt lat="43.94472" lon="0.54999">
        <ele>169</ele>
        <time>2021-03-13T19:57:20+01:00</time>
      </trkpt>
      <trkpt lat="43.94492" lon="0.54983">
        <ele>171</ele>
        <time>2021-03-13T19:57:25+01:00</time>
      </trkpt>
      <trkpt lat="43.94502" lon="0.54971">
        <ele>171</ele>
        <time>2021-03-13T19:57:30+01:00</time>
      </trkpt>
      <trkpt lat="43.94529" lon="0.54931">
        <ele>172</ele>
        <time>2021-03-13T19:57:35+01:00</time>
      </trkpt>
      <trkpt lat="43.9458" lon="0.54861">
        <ele>175</ele>
        <time>2021-03-13T19:57:40+01:00</time>
      </trkpt>
      <trkpt lat="43.94627" lon="0.5478">
        <ele>176</ele>
        <time>2021-03-13T19:57:45+01:00</time>
      </trkpt>
      <trkpt lat="43.94651" lon="0.54747">
        <ele>176</ele>
        <time>2021-03-13T19:57:50+01:00</time>
      </trkpt>
      <trkpt lat="43.94683" lon="0.54704">
        <ele>176</ele>
        <time>2021-03-13T19:57:55+01:00</time>
      </trkpt>
      <trkpt lat="43.947" lon="0.54674">
        <ele>175</ele>
        <time>2021-03-13T19:58:00+01:00</time>
      </trkpt>
      <trkpt lat="43.94709" lon="0.54649">
        <ele>174</ele>
        <time>2021-03-13T19:58:05+01:00</time>
      </trkpt>
      <trkpt lat="43.9472" lon="0.54604">
        <ele>174</ele>
        <time>2021-03-13T19:58:10+01:00</time>
      </trkpt>
      <trkpt lat="43.94728" lon="0.54581">
        <ele>174</ele>
        <time>2021-03-13T19:58:15+01:00</time>
      </trkpt>
      <trkpt lat="43.9476" lon="0.54503">
        <ele>174</ele>
        <time>2021-03-13T19:58:20+01:00</time>
      </trkpt>
      <trkpt lat="43.94694" lon="0.54436">
        <ele>175</ele>
        <time>2021-03-13T19:58:25+01:00</time>
      </trkpt>
      <trkpt lat="43.94664" lon="0.54402">
        <ele>175</ele>
        <time>2021-03-13T19:58:30+01:00</time>
      </trkpt>
      <trkpt lat="43.94645" lon="0.54374">
        <ele>175</ele>
        <time>2021-03-13T19:58:35+01:00</time>
      </trkpt>
      <trkpt lat="43.94604" lon="0.54317">
        <ele>175</ele>
        <time>2021-03-13T19:58:40+01:00</time>
      </trkpt>
      <trkpt lat="43.94572" lon="0.54284">
        <ele>175</ele>
        <time>2021-03-13T19:58:45+01:00</time>
      </trkpt>
      <trkpt lat="43.94547" lon="0.54262">
        <ele>175</ele>
        <time>2021-03-13T19:58:50+01:00</time>
      </trkpt>
      <trkpt lat="43.9445" lon="0.54169">
        <ele>172</ele>
        <time>2021-03-13T19:58:55+01:00</time>
      </trkpt>
      <trkpt lat="43.94445" lon="0.54164">
        <ele>172</ele>
        <time>2021-03-13T19:59:00+01:00</time>
      </trkpt>
      <trkpt lat="43.94445" lon="0.54164">
        <ele>172</ele>
        <time>2021-03-13T19:59:05+01:00</time>
      </trkpt>
      <trkpt lat="43.94417" lon="0.54132">
        <ele>172</ele>
        <time>2021-03-13T19:59:10+01:00</time>
      </trkpt>
      <trkpt lat="43.9439" lon="0.54096">
        <ele>171</ele>
        <time>2021-03-13T19:59:15+01:00</time>
      </trkpt>
      <trkpt lat="43.94364" lon="0.54065">
        <ele>170</ele>
        <time>2021-03-13T19:59:20+01:00</time>
      </trkpt>
      <trkpt lat="43.94354" lon="0.54063">
        <ele>170</ele>
        <time>2021-03-13T19:59:25+01:00</time>
      </trkpt>
      <trkpt lat="43.94324" lon="0.54062">
        <ele>168</ele>
        <time>2021-03-13T19:59:30+01:00</time>
      </trkpt>
      <trkpt lat="43.94328" lon="0.54043">
        <ele>168</ele>
        <time>2021-03-13T19:59:35+01:00</time>
      </trkpt>
      <trkpt lat="43.94333" lon="0.54018">
        <ele>166</ele>
        <time>2021-03-13T19:59:40+01:00</time>
      </trkpt>
      <trkpt lat="43.94332" lon="0.5398">
        <ele>161</ele>
        <time>2021-03-13T19:59:45+01:00</time>
      </trkpt>
      <trkpt lat="43.94326" lon="0.53944">
        <ele>158</ele>
        <time>2021-03-13T19:59:50+01:00</time>
      </trkpt>
      <trkpt lat="43.94318" lon="0.53898">
        <ele>154</ele>
        <time>2021-03-13T19:59:55+01:00</time>
      </trkpt>
      <trkpt lat="43.94319" lon="0.53886">
        <ele>153</ele>
        <time>2021-03-13T20:00:00+01:00</time>
      </trkpt>
      <trkpt lat="43.94325" lon="0.53842">
        <ele>149</ele>
        <time>2021-03-13T20:00:05+01:00</time>
      </trkpt>
      <trkpt lat="43.94347" lon="0.53728">
        <ele>136</ele>
        <time>2021-03-13T20:00:10+01:00</time>
      </trkpt>
      <trkpt lat="43.94362" lon="0.53662">
        <ele>127</ele>
        <time>2021-03-13T20:00:15+01:00</time>
      </trkpt>
      <trkpt lat="43.94364" lon="0.53633">
        <ele>124</ele>
        <time>2021-03-13T20:00:20+01:00</time>
      </trkpt>
      <trkpt lat="43.94365" lon="0.53597">
        <ele>120</ele>
        <time>2021-03-13T20:00:25+01:00</time>
      </trkpt>
      <trkpt lat="43.9434" lon="0.53538">
        <ele>114</ele>
        <time>2021-03-13T20:00:30+01:00</time>
      </trkpt>
      <trkpt lat="43.94306" lon="0.53445">
        <ele>105</ele>
        <time>2021-03-13T20:00:35+01:00</time>
      </trkpt>
      <trkpt lat="43.9428" lon="0.53371">
        <ele>105</ele>
        <time>2021-03-13T20:00:40+01:00</time>
      </trkpt>
      <trkpt lat="43.9428" lon="0.53371">
        <ele>105</ele>
        <time>2021-03-13T20:00:45+01:00</time>
      </trkpt>
      <trkpt lat="43.94254" lon="0.53281">
        <ele>107</ele>
        <time>2021-03-13T20:00:50+01:00</time>
      </trkpt>
      <trkpt lat="43.94231" lon="0.5322">
        <ele>109</ele>
        <time>2021-03-13T20:00:55+01:00</time>
      </trkpt>
      <trkpt lat="43.94216" lon="0.53171">
        <ele>110</ele>
        <time>2021-03-13T20:01:00+01:00</time>
      </trkpt>
      <trkpt lat="43.94217" lon="0.53168">
        <ele>110</ele>
        <time>2021-03-13T20:01:05+01:00</time>
      </trkpt>
      <trkpt lat="43.94214" lon="0.53167">
        <ele>110</ele>
        <time>2021-03-13T20:01:10+01:00</time>
      </trkpt>
      <trkpt lat="43.942" lon="0.53161">
        <ele>109</ele>
        <time>2021-03-13T20:01:15+01:00</time>
      </trkpt>
      <trkpt lat="43.9419" lon="0.53167">
        <ele>109</ele>
        <time>2021-03-13T20:01:20+01:00</time>
      </trkpt>
      <trkpt lat="43.94181" lon="0.53163">
        <ele>109</ele>
        <time>2021-03-13T20:01:25+01:00</time>
      </trkpt>
      <trkpt lat="43.94167" lon="0.53114">
        <ele>110</ele>
        <time>2021-03-13T20:01:30+01:00</time>
      </trkpt>
      <trkpt lat="43.94137" lon="0.53006">
        <ele>114</ele>
        <time>2021-03-13T20:01:35+01:00</time>
      </trkpt>
      <trkpt lat="43.94113" lon="0.52924">
        <ele>115</ele>
        <time>2021-03-13T20:01:40+01:00</time>
      </trkpt>
      <trkpt lat="43.94115" lon="0.52917">
        <ele>115</ele>
        <time>2021-03-13T20:01:45+01:00</time>
      </trkpt>
      <trkpt lat="43.94122" lon="0.5291">
        <ele>116</ele>
        <time>2021-03-13T20:01:50+01:00</time>
      </trkpt>
      <trkpt lat="43.94136" lon="0.52894">
        <ele>118</ele>
        <time>2021-03-13T20:01:55+01:00</time>
      </trkpt>
      <trkpt lat="43.94137" lon="0.5288">
        <ele>118</ele>
        <time>2021-03-13T20:02:00+01:00</time>
      </trkpt>
      <trkpt lat="43.94128" lon="0.52828">
        <ele>121</ele>
        <time>2021-03-13T20:02:05+01:00</time>
      </trkpt>
      <trkpt lat="43.94123" lon="0.52807">
        <ele>122</ele>
        <time>2021-03-13T20:02:10+01:00</time>
      </trkpt>
      <trkpt lat="43.94109" lon="0.52795">
        <ele>122</ele>
        <time>2021-03-13T20:02:15+01:00</time>
      </trkpt>
      <trkpt lat="43.94085" lon="0.52733">
        <ele>125</ele>
        <time>2021-03-13T20:02:20+01:00</time>
      </trkpt>
      <trkpt lat="43.94072" lon="0.52684">
        <ele>128</ele>
        <time>2021-03-13T20:02:25+01:00</time>
      </trkpt>
      <trkpt lat="43.94064" lon="0.52625">
        <ele>131</ele>
        <time>2021-03-13T20:02:30+01:00</time>
      </trkpt>
      <trkpt lat="43.94051" lon="0.52585">
        <ele>134</ele>
        <time>2021-03-13T20:02:35+01:00</time>
      </trkpt>
      <trkpt lat="43.94037" lon="0.52557">
        <ele>135</ele>
        <time>2021-03-13T20:02:40+01:00</time>
      </trkpt>
      <trkpt lat="43.94015" lon="0.52504">
        <ele>137</ele>
        <time>2021-03-13T20:02:45+01:00</time>
      </trkpt>
      <trkpt lat="43.94" lon="0.52451">
        <ele>138</ele>
        <time>2021-03-13T20:02:50+01:00</time>
      </trkpt>
      <trkpt lat="43.9399" lon="0.52398">
        <ele>139</ele>
        <time>2021-03-13T20:02:55+01:00</time>
      </trkpt>
      <trkpt lat="43.93989" lon="0.52388">
        <ele>140</ele>
        <time>2021-03-13T20:03:00+01:00</time>
      </trkpt>
      <trkpt lat="43.93992" lon="0.52327">
        <ele>142</ele>
        <time>2021-03-13T20:03:05+01:00</time>
      </trkpt>
      <trkpt lat="43.93993" lon="0.52323">
        <ele>142</ele>
        <time>2021-03-13T20:03:10+01:00</time>
      </trkpt>
      <trkpt lat="43.93993" lon="0.52323">
        <ele>142</ele>
        <time>2021-03-13T20:03:15+01:00</time>
      </trkpt>
      <trkpt lat="43.94001" lon="0.52271">
        <ele>145</ele>
        <time>2021-03-13T20:03:20+01:00</time>
      </trkpt>
      <trkpt lat="43.94008" lon="0.52219">
        <ele>149</ele>
        <time>2021-03-13T20:03:25+01:00</time>
      </trkpt>
      <trkpt lat="43.94014" lon="0.52169">
        <ele>152</ele>
        <time>2021-03-13T20:03:30+01:00</time>
      </trkpt>
      <trkpt lat="43.94017" lon="0.52094">
        <ele>155</ele>
        <time>2021-03-13T20:03:35+01:00</time>
      </trkpt>
      <trkpt lat="43.94014" lon="0.52087">
        <ele>155</ele>
        <time>2021-03-13T20:03:40+01:00</time>
      </trkpt>
      <trkpt lat="43.93998" lon="0.52071">
        <ele>156</ele>
        <time>2021-03-13T20:03:45+01:00</time>
      </trkpt>
      <trkpt lat="43.93936" lon="0.52008">
        <ele>165</ele>
        <time>2021-03-13T20:03:50+01:00</time>
      </trkpt>
      <trkpt lat="43.93862" lon="0.51936">
        <ele>177</ele>
        <time>2021-03-13T20:03:55+01:00</time>
      </trkpt>
      <trkpt lat="43.93825" lon="0.51906">
        <ele>182</ele>
        <time>2021-03-13T20:04:00+01:00</time>
      </trkpt>
      <trkpt lat="43.93805" lon="0.51884">
        <ele>183</ele>
        <time>2021-03-13T20:04:05+01:00</time>
      </trkpt>
      <trkpt lat="43.938" lon="0.51873">
        <ele>183</ele>
        <time>2021-03-13T20:04:10+01:00</time>
      </trkpt>
      <trkpt lat="43.93798" lon="0.51861">
        <ele>183</ele>
        <time>2021-03-13T20:04:15+01:00</time>
      </trkpt>
      <trkpt lat="43.93798" lon="0.51842">
        <ele>184</ele>
        <time>2021-03-13T20:04:20+01:00</time>
      </trkpt>
      <trkpt lat="43.93802" lon="0.51793">
        <ele>186</ele>
        <time>2021-03-13T20:04:25+01:00</time>
      </trkpt>
      <trkpt lat="43.93809" lon="0.51738">
        <ele>188</ele>
        <time>2021-03-13T20:04:30+01:00</time>
      </trkpt>
      <trkpt lat="43.93808" lon="0.51728">
        <ele>189</ele>
        <time>2021-03-13T20:04:35+01:00</time>
      </trkpt>
      <trkpt lat="43.93814" lon="0.51694">
        <ele>189</ele>
        <time>2021-03-13T20:04:40+01:00</time>
      </trkpt>
      <trkpt lat="43.93827" lon="0.51571">
        <ele>191</ele>
        <time>2021-03-13T20:04:45+01:00</time>
      </trkpt>
      <trkpt lat="43.93829" lon="0.51522">
        <ele>193</ele>
        <time>2021-03-13T20:04:50+01:00</time>
      </trkpt>
      <trkpt lat="43.93827" lon="0.51484">
        <ele>195</ele>
        <time>2021-03-13T20:04:55+01:00</time>
      </trkpt>
      <trkpt lat="43.93822" lon="0.51429">
        <ele>195</ele>
        <time>2021-03-13T20:05:00+01:00</time>
      </trkpt>
      <trkpt lat="43.93823" lon="0.51408">
        <ele>194</ele>
        <time>2021-03-13T20:05:05+01:00</time>
      </trkpt>
      <trkpt lat="43.93831" lon="0.51371">
        <ele>193</ele>
        <time>2021-03-13T20:05:10+01:00</time>
      </trkpt>
      <trkpt lat="43.93847" lon="0.5134">
        <ele>193</ele>
        <time>2021-03-13T20:05:15+01:00</time>
      </trkpt>
      <trkpt lat="43.93863" lon="0.51317">
        <ele>194</ele>
        <time>2021-03-13T20:05:20+01:00</time>
      </trkpt>
      <trkpt lat="43.93879" lon="0.51288">
        <ele>194</ele>
        <time>2021-03-13T20:05:25+01:00</time>
      </trkpt>
      <trkpt lat="43.93893" lon="0.51263">
        <ele>194</ele>
        <time>2021-03-13T20:05:30+01:00</time>
      </trkpt>
      <trkpt lat="43.93909" lon="0.5122">
        <ele>193</ele>
        <time>2021-03-13T20:05:35+01:00</time>
      </trkpt>
      <trkpt lat="43.93919" lon="0.51197">
        <ele>192</ele>
        <time>2021-03-13T20:05:40+01:00</time>
      </trkpt>
      <trkpt lat="43.93946" lon="0.51144">
        <ele>192</ele>
        <time>2021-03-13T20:05:45+01:00</time>
      </trkpt>
      <trkpt lat="43.93963" lon="0.51094">
        <ele>191</ele>
        <time>2021-03-13T20:05:50+01:00</time>
      </trkpt>
      <trkpt lat="43.93982" lon="0.51039">
        <ele>188</ele>
        <time>2021-03-13T20:05:55+01:00</time>
      </trkpt>
      <trkpt lat="43.94007" lon="0.51004">
        <ele>183</ele>
        <time>2021-03-13T20:06:00+01:00</time>
      </trkpt>
      <trkpt lat="43.94078" lon="0.50899">
        <ele>170</ele>
        <time>2021-03-13T20:06:05+01:00</time>
      </trkpt>
      <trkpt lat="43.94096" lon="0.50873">
        <ele>169</ele>
        <time>2021-03-13T20:06:10+01:00</time>
      </trkpt>
      <trkpt lat="43.94115" lon="0.50854">
        <ele>168</ele>
        <time>2021-03-13T20:06:15+01:00</time>
      </trkpt>
      <trkpt lat="43.94128" lon="0.50836">
        <ele>168</ele>
        <time>2021-03-13T20:06:20+01:00</time>
      </trkpt>
      <trkpt lat="43.94138" lon="0.50816">
        <ele>168</ele>
        <time>2021-03-13T20:06:25+01:00</time>
      </trkpt>
      <trkpt lat="43.94138" lon="0.50816">
        <ele>168</ele>
        <time>2021-03-13T20:06:30+01:00</time>
      </trkpt>
      <trkpt lat="43.94147" lon="0.50795">
        <ele>167</ele>
        <time>2021-03-13T20:06:35+01:00</time>
      </trkpt>
      <trkpt lat="43.94162" lon="0.50748">
        <ele>165</ele>
        <time>2021-03-13T20:06:40+01:00</time>
      </trkpt>
      <trkpt lat="43.94175" lon="0.50714">
        <ele>164</ele>
        <time>2021-03-13T20:06:45+01:00</time>
      </trkpt>
      <trkpt lat="43.94196" lon="0.50648">
        <ele>164</ele>
        <time>2021-03-13T20:06:50+01:00</time>
      </trkpt>
      <trkpt lat="43.94204" lon="0.50627">
        <ele>164</ele>
        <time>2021-03-13T20:06:55+01:00</time>
      </trkpt>
      <trkpt lat="43.94216" lon="0.50609">
        <ele>165</ele>
        <time>2021-03-13T20:07:00+01:00</time>
      </trkpt>
      <trkpt lat="43.94227" lon="0.5059">
        <ele>167</ele>
        <time>2021-03-13T20:07:05+01:00</time>
      </trkpt>
      <trkpt lat="43.94265" lon="0.50516">
        <ele>171</ele>
        <time>2021-03-13T20:07:10+01:00</time>
      </trkpt>
      <trkpt lat="43.94286" lon="0.5046">
        <ele>173</ele>
        <time>2021-03-13T20:07:15+01:00</time>
      </trkpt>
      <trkpt lat="43.94307" lon="0.50395">
        <ele>176</ele>
        <time>2021-03-13T20:07:20+01:00</time>
      </trkpt>
      <trkpt lat="43.94325" lon="0.50311">
        <ele>178</ele>
        <time>2021-03-13T20:07:25+01:00</time>
      </trkpt>
      <trkpt lat="43.94358" lon="0.5015">
        <ele>178</ele>
        <time>2021-03-13T20:07:30+01:00</time>
      </trkpt>
      <trkpt lat="43.94371" lon="0.50108">
        <ele>177</ele>
        <time>2021-03-13T20:07:35+01:00</time>
      </trkpt>
      <trkpt lat="43.94439" lon="0.49955">
        <ele>178</ele>
        <time>2021-03-13T20:07:40+01:00</time>
      </trkpt>
      <trkpt lat="43.94457" lon="0.49905">
        <ele>178</ele>
        <time>2021-03-13T20:07:45+01:00</time>
      </trkpt>
      <trkpt lat="43.94466" lon="0.49877">
        <ele>178</ele>
        <time>2021-03-13T20:07:50+01:00</time>
      </trkpt>
      <trkpt lat="43.9449" lon="0.4977">
        <ele>177</ele>
        <time>2021-03-13T20:07:55+01:00</time>
      </trkpt>
      <trkpt lat="43.94495" lon="0.49731">
        <ele>176</ele>
        <time>2021-03-13T20:08:00+01:00</time>
      </trkpt>
      <trkpt lat="43.94497" lon="0.49725">
        <ele>176</ele>
        <time>2021-03-13T20:08:05+01:00</time>
      </trkpt>
      <trkpt lat="43.94497" lon="0.49725">
        <ele>176</ele>
        <time>2021-03-13T20:08:10+01:00</time>
      </trkpt>
      <trkpt lat="43.94523" lon="0.49632">
        <ele>175</ele>
        <time>2021-03-13T20:08:15+01:00</time>
      </trkpt>
      <trkpt lat="43.94539" lon="0.49583">
        <ele>175</ele>
        <time>2021-03-13T20:08:20+01:00</time>
      </trkpt>
      <trkpt lat="43.94598" lon="0.49428">
        <ele>175</ele>
        <time>2021-03-13T20:08:25+01:00</time>
      </trkpt>
      <trkpt lat="43.94629" lon="0.4935">
        <ele>175</ele>
        <time>2021-03-13T20:08:30+01:00</time>
      </trkpt>
      <trkpt lat="43.94669" lon="0.49234">
        <ele>174</ele>
        <time>2021-03-13T20:08:35+01:00</time>
      </trkpt>
      <trkpt lat="43.94681" lon="0.49188">
        <ele>172</ele>
        <time>2021-03-13T20:08:40+01:00</time>
      </trkpt>
      <trkpt lat="43.94697" lon="0.49087">
        <ele>170</ele>
        <time>2021-03-13T20:08:45+01:00</time>
      </trkpt>
      <trkpt lat="43.94698" lon="0.48951">
        <ele>169</ele>
        <time>2021-03-13T20:08:50+01:00</time>
      </trkpt>
      <trkpt lat="43.94699" lon="0.48943">
        <ele>169</ele>
        <time>2021-03-13T20:08:55+01:00</time>
      </trkpt>
      <trkpt lat="43.94706" lon="0.48946">
        <ele>169</ele>
        <time>2021-03-13T20:09:00+01:00</time>
      </trkpt>
      <trkpt lat="43.94726" lon="0.48952">
        <ele>169</ele>
        <time>2021-03-13T20:09:05+01:00</time>
      </trkpt>
      <trkpt lat="43.94743" lon="0.48954">
        <ele>167</ele>
        <time>2021-03-13T20:09:10+01:00</time>
      </trkpt>
      <trkpt lat="43.94771" lon="0.48955">
        <ele>165</ele>
        <time>2021-03-13T20:09:15+01:00</time>
      </trkpt>
      <trkpt lat="43.94825" lon="0.48954">
        <ele>160</ele>
        <time>2021-03-13T20:09:20+01:00</time>
      </trkpt>
      <trkpt lat="43.94825" lon="0.48954">
        <ele>160</ele>
        <time>2021-03-13T20:09:25+01:00</time>
      </trkpt>
      <trkpt lat="43.94833" lon="0.48952">
        <ele>160</ele>
        <time>2021-03-13T20:09:30+01:00</time>
      </trkpt>
      <trkpt lat="43.94844" lon="0.48947">
        <ele>159</ele>
        <time>2021-03-13T20:09:35+01:00</time>
      </trkpt>
      <trkpt lat="43.94862" lon="0.48935">
        <ele>157</ele>
        <time>2021-03-13T20:09:40+01:00</time>
      </trkpt>
      <trkpt lat="43.94867" lon="0.48933">
        <ele>157</ele>
        <time>2021-03-13T20:09:45+01:00</time>
      </trkpt>
      <trkpt lat="43.94876" lon="0.48933">
        <ele>156</ele>
        <time>2021-03-13T20:09:50+01:00</time>
      </trkpt>
      <trkpt lat="43.9489" lon="0.48936">
        <ele>155</ele>
        <time>2021-03-13T20:09:55+01:00</time>
      </trkpt>
      <trkpt lat="43.94901" lon="0.4894">
        <ele>154</ele>
        <time>2021-03-13T20:10:00+01:00</time>
      </trkpt>
      <trkpt lat="43.94927" lon="0.4895">
        <ele>153</ele>
        <time>2021-03-13T20:10:05+01:00</time>
      </trkpt>
      <trkpt lat="43.94959" lon="0.4896">
        <ele>150</ele>
        <time>2021-03-13T20:10:10+01:00</time>
      </trkpt>
      <trkpt lat="43.95034" lon="0.48992">
        <ele>142</ele>
        <time>2021-03-13T20:10:15+01:00</time>
      </trkpt>
      <trkpt lat="43.95051" lon="0.49001">
        <ele>141</ele>
        <time>2021-03-13T20:10:20+01:00</time>
      </trkpt>
      <trkpt lat="43.95065" lon="0.49012">
        <ele>140</ele>
        <time>2021-03-13T20:10:25+01:00</time>
      </trkpt>
      <trkpt lat="43.95081" lon="0.49024">
        <ele>141</ele>
        <time>2021-03-13T20:10:30+01:00</time>
      </trkpt>
      <trkpt lat="43.951" lon="0.49035">
        <ele>141</ele>
        <time>2021-03-13T20:10:35+01:00</time>
      </trkpt>
      <trkpt lat="43.95117" lon="0.49041">
        <ele>141</ele>
        <time>2021-03-13T20:10:40+01:00</time>
      </trkpt>
      <trkpt lat="43.95137" lon="0.49041">
        <ele>143</ele>
        <time>2021-03-13T20:10:45+01:00</time>
      </trkpt>
      <trkpt lat="43.95166" lon="0.49034">
        <ele>145</ele>
        <time>2021-03-13T20:10:50+01:00</time>
      </trkpt>
      <trkpt lat="43.95196" lon="0.49023">
        <ele>149</ele>
        <time>2021-03-13T20:10:55+01:00</time>
      </trkpt>
      <trkpt lat="43.95196" lon="0.49023">
        <ele>149</ele>
        <time>2021-03-13T20:11:00+01:00</time>
      </trkpt>
      <trkpt lat="43.95245" lon="0.49009">
        <ele>154</ele>
        <time>2021-03-13T20:11:05+01:00</time>
      </trkpt>
      <trkpt lat="43.95285" lon="0.49007">
        <ele>151</ele>
        <time>2021-03-13T20:11:10+01:00</time>
      </trkpt>
      <trkpt lat="43.9531" lon="0.49002">
        <ele>149</ele>
        <time>2021-03-13T20:11:15+01:00</time>
      </trkpt>
      <trkpt lat="43.95353" lon="0.48996">
        <ele>149</ele>
        <time>2021-03-13T20:11:20+01:00</time>
      </trkpt>
      <trkpt lat="43.95396" lon="0.48991">
        <ele>150</ele>
        <time>2021-03-13T20:11:25+01:00</time>
      </trkpt>
      <trkpt lat="43.95409" lon="0.48992">
        <ele>152</ele>
        <time>2021-03-13T20:11:30+01:00</time>
      </trkpt>
      <trkpt lat="43.95441" lon="0.49012">
        <ele>154</ele>
        <time>2021-03-13T20:11:35+01:00</time>
      </trkpt>
      <trkpt lat="43.95525" lon="0.49062">
        <ele>163</ele>
        <time>2021-03-13T20:11:40+01:00</time>
      </trkpt>
      <trkpt lat="43.95525" lon="0.49062">
        <ele>163</ele>
        <time>2021-03-13T20:11:45+01:00</time>
      </trkpt>
      <trkpt lat="43.95588" lon="0.49109">
        <ele>172</ele>
        <time>2021-03-13T20:11:50+01:00</time>
      </trkpt>
      <trkpt lat="43.95605" lon="0.49121">
        <ele>174</ele>
        <time>2021-03-13T20:11:55+01:00</time>
      </trkpt>
      <trkpt lat="43.9562" lon="0.49128">
        <ele>172</ele>
        <time>2021-03-13T20:12:00+01:00</time>
      </trkpt>
      <trkpt lat="43.95657" lon="0.4913">
        <ele>165</ele>
        <time>2021-03-13T20:12:05+01:00</time>
      </trkpt>
      <trkpt lat="43.95728" lon="0.49124">
        <ele>158</ele>
        <time>2021-03-13T20:12:10+01:00</time>
      </trkpt>
      <trkpt lat="43.95854" lon="0.49112">
        <ele>150</ele>
        <time>2021-03-13T20:12:15+01:00</time>
      </trkpt>
      <trkpt lat="43.95854" lon="0.49112">
        <ele>150</ele>
        <time>2021-03-13T20:12:20+01:00</time>
      </trkpt>
      <trkpt lat="43.95927" lon="0.49108">
        <ele>149</ele>
        <time>2021-03-13T20:12:25+01:00</time>
      </trkpt>
      <trkpt lat="43.95955" lon="0.49121">
        <ele>154</ele>
        <time>2021-03-13T20:12:30+01:00</time>
      </trkpt>
      <trkpt lat="43.96007" lon="0.49147">
        <ele>161</ele>
        <time>2021-03-13T20:12:35+01:00</time>
      </trkpt>
      <trkpt lat="43.9602" lon="0.49162">
        <ele>162</ele>
        <time>2021-03-13T20:12:40+01:00</time>
      </trkpt>
      <trkpt lat="43.96076" lon="0.4926">
        <ele>164</ele>
        <time>2021-03-13T20:12:45+01:00</time>
      </trkpt>
      <trkpt lat="43.96096" lon="0.4928">
        <ele>165</ele>
        <time>2021-03-13T20:12:50+01:00</time>
      </trkpt>
      <trkpt lat="43.96111" lon="0.49317">
        <ele>166</ele>
        <time>2021-03-13T20:12:55+01:00</time>
      </trkpt>
      <trkpt lat="43.96125" lon="0.49353">
        <ele>168</ele>
        <time>2021-03-13T20:13:00+01:00</time>
      </trkpt>
      <trkpt lat="43.9613" lon="0.49362">
        <ele>169</ele>
        <time>2021-03-13T20:13:05+01:00</time>
      </trkpt>
      <trkpt lat="43.96187" lon="0.4939">
        <ele>174</ele>
        <time>2021-03-13T20:13:10+01:00</time>
      </trkpt>
      <trkpt lat="43.96229" lon="0.49419">
        <ele>179</ele>
        <time>2021-03-13T20:13:15+01:00</time>
      </trkpt>
      <trkpt lat="43.96261" lon="0.49435">
        <ele>186</ele>
        <time>2021-03-13T20:13:20+01:00</time>
      </trkpt>
      <trkpt lat="43.96313" lon="0.4946">
        <ele>193</ele>
        <time>2021-03-13T20:13:25+01:00</time>
      </trkpt>
      <trkpt lat="43.9636" lon="0.49479">
        <ele>199</ele>
        <time>2021-03-13T20:13:30+01:00</time>
      </trkpt>
      <trkpt lat="43.96415" lon="0.49495">
        <ele>205</ele>
        <time>2021-03-13T20:13:35+01:00</time>
      </trkpt>
      <trkpt lat="43.96426" lon="0.49453">
        <ele>205</ele>
        <time>2021-03-13T20:13:40+01:00</time>
      </trkpt>
      <trkpt lat="43.96429" lon="0.49445">
        <ele>205</ele>
        <time>2021-03-13T20:13:45+01:00</time>
      </trkpt>
      <trkpt lat="43.96457" lon="0.49395">
        <ele>205</ele>
        <time>2021-03-13T20:13:50+01:00</time>
      </trkpt>
      <trkpt lat="43.96457" lon="0.49395">
        <ele>205</ele>
        <time>2021-03-13T20:13:55+01:00</time>
      </trkpt>
      <trkpt lat="43.96476" lon="0.49352">
        <ele>205</ele>
        <time>2021-03-13T20:14:00+01:00</time>
      </trkpt>
      <trkpt lat="43.96494" lon="0.49272">
        <ele>203</ele>
        <time>2021-03-13T20:14:05+01:00</time>
      </trkpt>
      <trkpt lat="43.96502" lon="0.49218">
        <ele>201</ele>
        <time>2021-03-13T20:14:10+01:00</time>
      </trkpt>
      <trkpt lat="43.96514" lon="0.4919">
        <ele>200</ele>
        <time>2021-03-13T20:14:15+01:00</time>
      </trkpt>
      <trkpt lat="43.96525" lon="0.49173">
        <ele>200</ele>
        <time>2021-03-13T20:14:20+01:00</time>
      </trkpt>
      <trkpt lat="43.96555" lon="0.49136">
        <ele>204</ele>
        <time>2021-03-13T20:14:25+01:00</time>
      </trkpt>
      <trkpt lat="43.96572" lon="0.4911">
        <ele>205</ele>
        <time>2021-03-13T20:14:30+01:00</time>
      </trkpt>
      <trkpt lat="43.96594" lon="0.49079">
        <ele>205</ele>
        <time>2021-03-13T20:14:35+01:00</time>
      </trkpt>
      <trkpt lat="43.9661" lon="0.49062">
        <ele>204</ele>
        <time>2021-03-13T20:14:40+01:00</time>
      </trkpt>
      <trkpt lat="43.96636" lon="0.49041">
        <ele>201</ele>
        <time>2021-03-13T20:14:45+01:00</time>
      </trkpt>
      <trkpt lat="43.96712" lon="0.48999">
        <ele>200</ele>
        <time>2021-03-13T20:14:50+01:00</time>
      </trkpt>
      <trkpt lat="43.96761" lon="0.48969">
        <ele>202</ele>
        <time>2021-03-13T20:14:55+01:00</time>
      </trkpt>
      <trkpt lat="43.96769" lon="0.48969">
        <ele>202</ele>
        <time>2021-03-13T20:15:00+01:00</time>
      </trkpt>
      <trkpt lat="43.96779" lon="0.48972">
        <ele>203</ele>
        <time>2021-03-13T20:15:05+01:00</time>
      </trkpt>
      <trkpt lat="43.96789" lon="0.48981">
        <ele>203</ele>
        <time>2021-03-13T20:15:10+01:00</time>
      </trkpt>
      <trkpt lat="43.96789" lon="0.48981">
        <ele>203</ele>
        <time>2021-03-13T20:15:15+01:00</time>
      </trkpt>
      <trkpt lat="43.96854" lon="0.49062">
        <ele>205</ele>
        <time>2021-03-13T20:15:20+01:00</time>
      </trkpt>
      <trkpt lat="43.9687" lon="0.49047">
        <ele>206</ele>
        <time>2021-03-13T20:15:25+01:00</time>
      </trkpt>
      <trkpt lat="43.969" lon="0.4903">
        <ele>208</ele>
        <time>2021-03-13T20:15:30+01:00</time>
      </trkpt>
      <trkpt lat="43.96919" lon="0.49016">
        <ele>209</ele>
        <time>2021-03-13T20:15:35+01:00</time>
      </trkpt>
      <trkpt lat="43.9697" lon="0.48977">
        <ele>210</ele>
        <time>2021-03-13T20:15:40+01:00</time>
      </trkpt>
      <trkpt lat="43.96999" lon="0.48949">
        <ele>210</ele>
        <time>2021-03-13T20:15:45+01:00</time>
      </trkpt>
      <trkpt lat="43.97029" lon="0.48911">
        <ele>210</ele>
        <time>2021-03-13T20:15:50+01:00</time>
      </trkpt>
      <trkpt lat="43.97063" lon="0.48861">
        <ele>210</ele>
        <time>2021-03-13T20:15:55+01:00</time>
      </trkpt>
      <trkpt lat="43.97084" lon="0.48824">
        <ele>210</ele>
        <time>2021-03-13T20:16:00+01:00</time>
      </trkpt>
      <trkpt lat="43.9712" lon="0.48793">
        <ele>210</ele>
        <time>2021-03-13T20:16:05+01:00</time>
      </trkpt>
      <trkpt lat="43.97154" lon="0.48768">
        <ele>210</ele>
        <time>2021-03-13T20:16:10+01:00</time>
      </trkpt>
      <trkpt lat="43.97154" lon="0.48768">
        <ele>210</ele>
        <time>2021-03-13T20:16:15+01:00</time>
      </trkpt>
      <trkpt lat="43.97209" lon="0.4873">
        <ele>210</ele>
        <time>2021-03-13T20:16:20+01:00</time>
      </trkpt>
      <trkpt lat="43.97223" lon="0.48723">
        <ele>210</ele>
        <time>2021-03-13T20:16:25+01:00</time>
      </trkpt>
      <trkpt lat="43.97234" lon="0.48719">
        <ele>210</ele>
        <time>2021-03-13T20:16:30+01:00</time>
      </trkpt>
      <trkpt lat="43.97249" lon="0.48717">
        <ele>210</ele>
        <time>2021-03-13T20:16:35+01:00</time>
      </trkpt>
      <trkpt lat="43.97265" lon="0.48718">
        <ele>210</ele>
        <time>2021-03-13T20:16:40+01:00</time>
      </trkpt>
      <trkpt lat="43.97283" lon="0.48718">
        <ele>210</ele>
        <time>2021-03-13T20:16:45+01:00</time>
      </trkpt>
      <trkpt lat="43.97341" lon="0.48702">
        <ele>210</ele>
        <time>2021-03-13T20:16:50+01:00</time>
      </trkpt>
      <trkpt lat="43.97374" lon="0.4869">
        <ele>210</ele>
        <time>2021-03-13T20:16:55+01:00</time>
      </trkpt>
      <trkpt lat="43.97398" lon="0.4868">
        <ele>210</ele>
        <time>2021-03-13T20:17:00+01:00</time>
      </trkpt>
      <trkpt lat="43.97423" lon="0.48669">
        <ele>210</ele>
        <time>2021-03-13T20:17:05+01:00</time>
      </trkpt>
      <trkpt lat="43.97429" lon="0.48665">
        <ele>210</ele>
        <time>2021-03-13T20:17:10+01:00</time>
      </trkpt>
      <trkpt lat="43.97446" lon="0.48805">
        <ele>204</ele>
        <time>2021-03-13T20:17:15+01:00</time>
      </trkpt>
      <trkpt lat="43.97467" lon="0.48926">
        <ele>199</ele>
        <time>2021-03-13T20:17:20+01:00</time>
      </trkpt>
      <trkpt lat="43.97479" lon="0.48994">
        <ele>197</ele>
        <time>2021-03-13T20:17:25+01:00</time>
      </trkpt>
      <trkpt lat="43.97479" lon="0.48994">
        <ele>197</ele>
        <time>2021-03-13T20:17:30+01:00</time>
      </trkpt>
      <trkpt lat="43.97503" lon="0.49124">
        <ele>194</ele>
        <time>2021-03-13T20:17:35+01:00</time>
      </trkpt>
      <trkpt lat="43.97511" lon="0.49156">
        <ele>192</ele>
        <time>2021-03-13T20:17:40+01:00</time>
      </trkpt>
      <trkpt lat="43.97519" lon="0.49173">
        <ele>192</ele>
        <time>2021-03-13T20:17:45+01:00</time>
      </trkpt>
      <trkpt lat="43.97527" lon="0.49185">
        <ele>192</ele>
        <time>2021-03-13T20:17:50+01:00</time>
      </trkpt>
      <trkpt lat="43.97599" lon="0.49255">
        <ele>190</ele>
        <time>2021-03-13T20:17:55+01:00</time>
      </trkpt>
      <trkpt lat="43.97714" lon="0.4937">
        <ele>182</ele>
        <time>2021-03-13T20:18:00+01:00</time>
      </trkpt>
      <trkpt lat="43.97765" lon="0.49413">
        <ele>181</ele>
        <time>2021-03-13T20:18:05+01:00</time>
      </trkpt>
      <trkpt lat="43.97801" lon="0.49439">
        <ele>180</ele>
        <time>2021-03-13T20:18:10+01:00</time>
      </trkpt>
      <trkpt lat="43.97838" lon="0.49461">
        <ele>180</ele>
        <time>2021-03-13T20:18:15+01:00</time>
      </trkpt>
      <trkpt lat="43.97838" lon="0.49461">
        <ele>180</ele>
        <time>2021-03-13T20:18:20+01:00</time>
      </trkpt>
      <trkpt lat="43.97894" lon="0.495">
        <ele>180</ele>
        <time>2021-03-13T20:18:25+01:00</time>
      </trkpt>
      <trkpt lat="43.97923" lon="0.49516">
        <ele>180</ele>
        <time>2021-03-13T20:18:30+01:00</time>
      </trkpt>
      <trkpt lat="43.97943" lon="0.4952">
        <ele>180</ele>
        <time>2021-03-13T20:18:35+01:00</time>
      </trkpt>
      <trkpt lat="43.97959" lon="0.4952">
        <ele>181</ele>
        <time>2021-03-13T20:18:40+01:00</time>
      </trkpt>
      <trkpt lat="43.98003" lon="0.4952">
        <ele>184</ele>
        <time>2021-03-13T20:18:45+01:00</time>
      </trkpt>
      <trkpt lat="43.98042" lon="0.49523">
        <ele>185</ele>
        <time>2021-03-13T20:18:50+01:00</time>
      </trkpt>
      <trkpt lat="43.98043" lon="0.49549">
        <ele>185</ele>
        <time>2021-03-13T20:18:55+01:00</time>
      </trkpt>
      <trkpt lat="43.98029" lon="0.49609">
        <ele>182</ele>
        <time>2021-03-13T20:19:00+01:00</time>
      </trkpt>
      <trkpt lat="43.98014" lon="0.49667">
        <ele>180</ele>
        <time>2021-03-13T20:19:05+01:00</time>
      </trkpt>
      <trkpt lat="43.98025" lon="0.4969">
        <ele>180</ele>
        <time>2021-03-13T20:19:10+01:00</time>
      </trkpt>
      <trkpt lat="43.9808" lon="0.49749">
        <ele>180</ele>
        <time>2021-03-13T20:19:15+01:00</time>
      </trkpt>
      <trkpt lat="43.98104" lon="0.49776">
        <ele>182</ele>
        <time>2021-03-13T20:19:20+01:00</time>
      </trkpt>
      <trkpt lat="43.98104" lon="0.4981">
        <ele>182</ele>
        <time>2021-03-13T20:19:25+01:00</time>
      </trkpt>
      <trkpt lat="43.98109" lon="0.49837">
        <ele>183</ele>
        <time>2021-03-13T20:19:30+01:00</time>
      </trkpt>
      <trkpt lat="43.98137" lon="0.49911">
        <ele>185</ele>
        <time>2021-03-13T20:19:35+01:00</time>
      </trkpt>
      <trkpt lat="43.98129" lon="0.49936">
        <ele>185</ele>
        <time>2021-03-13T20:19:40+01:00</time>
      </trkpt>
      <trkpt lat="43.98107" lon="0.49971">
        <ele>185</ele>
        <time>2021-03-13T20:19:45+01:00</time>
      </trkpt>
    </trkseg>
  </trk>
</gpx>